Observation data for Fort Chadbourne on 02/10/2018      Previous  Date  Next       Current Mesonet Observations  Soil Data  Daily Summary Page  Observations in Plain Language
KCH1 100600Z 16004KT 12/09 A2992 RMK A01 T01150086  RH  083%=      5-min Rain = 0
KCH1 100601Z 16005KT 11/09 A2992 RMK A01 T01140086  RH  083%=      5-min Rain = 0
KCH1 100602Z 16004KT 11/09 A2992 RMK A01 T01140086  RH  083%=      5-min Rain = 0
KCH1 100603Z 17004KT 11/09 A2992 RMK A01 T01140086  RH  083%=      5-min Rain = 0
KCH1 100604Z 18003KT 11/09 A2992 RMK A01 T01130085  RH  083%=      5-min Rain = 0
KCH1 100605Z 17003KT 11/09 A2992 RMK A01 T01130086  RH  083%=      5-min Rain = 0
KCH1 100606Z 17003KT 11/09 A2992 RMK A01 T01120086  RH  084%=      5-min Rain = 0
KCH1 100607Z 16004KT 11/09 A2992 RMK A01 T01120086  RH  084%=      5-min Rain = 0
KCH1 100608Z 16005KT 11/09 A2992 RMK A01 T01120086  RH  084%=      5-min Rain = 0
KCH1 100609Z 16005KT 11/09 A2992 RMK A01 T01110085  RH  084%=      5-min Rain = 0
KCH1 100610Z 16005KT 11/09 A2992 RMK A01 T01110085  RH  084%=      5-min Rain = 0
KCH1 100611Z 16006KT 11/09 A2992 RMK A01 T01100085  RH  084%=      5-min Rain = 0
KCH1 100612Z 16006KT 11/09 A2992 RMK A01 T01100085  RH  085%=      5-min Rain = 0
KCH1 100613Z 16006KT 11/08 A2992 RMK A01 T01090084  RH  084%=      5-min Rain = 0
KCH1 100614Z 17004KT 11/08 A2992 RMK A01 T01080083  RH  085%=      5-min Rain = 0
KCH1 100615Z 17005KT 11/08 A2992 RMK A01 T01070083  RH  085%=      5-min Rain = 0
KCH1 100616Z 17005KT 11/08 A2992 RMK A01 T01060083  RH  086%=      5-min Rain = 0
KCH1 100617Z 16005KT 11/08 A2992 RMK A01 T01060083  RH  086%=      5-min Rain = 0
KCH1 100618Z 16005KT 11/08 A2992 RMK A01 T01060083  RH  086%=      5-min Rain = 0
KCH1 100619Z 16006KT 11/08 A2992 RMK A01 T01060083  RH  086%=      5-min Rain = 0
KCH1 100620Z 17005KT 11/08 A2992 RMK A01 T01050083  RH  086%=      5-min Rain = 0
KCH1 100621Z 16005KT 10/08 A2992 RMK A01 T01040082  RH  086%=      5-min Rain = 0
KCH1 100622Z 16005KT 10/08 A2992 RMK A01 T01040083  RH  087%=      5-min Rain = 0
KCH1 100623Z 16005KT 10/08 A2992 RMK A01 T01040083  RH  087%=      5-min Rain = 0
KCH1 100624Z 16004KT 10/08 A2992 RMK A01 T01040084  RH  087%=      5-min Rain = 0
KCH1 100625Z 16004KT 11/08 A2992 RMK A01 T01050084  RH  087%=      5-min Rain = 0
KCH1 100626Z 15004KT 11/08 A2992 RMK A01 T01050083  RH  087%=      5-min Rain = 0
KCH1 100627Z 14003KT 11/08 A2992 RMK A01 T01050083  RH  087%=      5-min Rain = 0
KCH1 100628Z 14002KT 11/08 A2992 RMK A01 T01050084  RH  087%=      5-min Rain = 0
KCH1 100629Z 13003KT 10/08 A2992 RMK A01 T01040083  RH  087%=      5-min Rain = 0
KCH1 100630Z 14002KT 10/08 A2992 RMK A01 T01040083  RH  087%=      5-min Rain = 0
KCH1 100631Z 13003KT 10/08 A2992 RMK A01 T01040083  RH  087%=      5-min Rain = 0
KCH1 100632Z 11002KT 10/08 A2992 RMK A01 T01040084  RH  087%=      5-min Rain = 0
KCH1 100633Z 09001KT 10/08 A2992 RMK A01 T01040083  RH  087%=      5-min Rain = 0
KCH1 100634Z 05001KT 10/08 A2992 RMK A01 T01030083  RH  087%=      5-min Rain = 0
KCH1 100635Z 08001KT 10/08 A2992 RMK A01 T01020082  RH  087%=      5-min Rain = 0
KCH1 100636Z 07001KT 10/08 A2992 RMK A01 T01020082  RH  087%=      5-min Rain = 0
KCH1 100637Z 08000KT 10/08 A2992 RMK A01 T01020082  RH  088%=      5-min Rain = 0
KCH1 100638Z 10000KT 10/08 A2992 RMK A01 T01020083  RH  088%=      5-min Rain = 0
KCH1 100639Z 08001KT 10/08 A2992 RMK A01 T01020083  RH  088%=      5-min Rain = 0
KCH1 100640Z 10001KT 10/08 A2992 RMK A01 T01030084  RH  088%=      5-min Rain = 0
KCH1 100641Z 08001KT 10/08 A2992 RMK A01 T01030083  RH  088%=      5-min Rain = 0
KCH1 100642Z 09001KT 10/08 A2992 RMK A01 T01030083  RH  088%=      5-min Rain = 0
KCH1 100643Z 08001KT 10/08 A2992 RMK A01 T01030084  RH  088%=      5-min Rain = 0
KCH1 100644Z 06002KT 10/08 A2992 RMK A01 T01030084  RH  088%=      5-min Rain = 0
KCH1 100645Z 05003KT 10/08 A2992 RMK A01 T01030083  RH  087%=      5-min Rain = 0
KCH1 100646Z 05003KT 10/08 A2992 RMK A01 T01020082  RH  087%=      5-min Rain = 0
KCH1 100647Z 04004KT 10/08 A2992 RMK A01 T01010079  RH  087%=      5-min Rain = 0
KCH1 100648Z 04005KT 10/08 A2993 RMK A01 T00990078  RH  087%=      5-min Rain = 0
KCH1 100649Z 03006KT 10/08 A2993 RMK A01 T00980078  RH  087%=      5-min Rain = 0
KCH1 100650Z 02007KT 10/08 A2993 RMK A01 T00970078  RH  088%=      5-min Rain = 0
KCH1 100651Z 01007KT 10/08 A2993 RMK A01 T00960077  RH  088%=      5-min Rain = 0
KCH1 100652Z 01009KT 10/08 A2993 RMK A01 T00960077  RH  088%=      5-min Rain = 0
KCH1 100653Z 01009KT 10/08 A2993 RMK A01 T00960079  RH  089%=      5-min Rain = 0
KCH1 100654Z 01008KT 10/08 A2994 RMK A01 T00960079  RH  089%=      5-min Rain = 0
KCH1 100655Z 01008KT 10/08 A2994 RMK A01 T00950078  RH  089%=      5-min Rain = 0
KCH1 100656Z 01008KT 10/08 A2994 RMK A01 T00950078  RH  089%=      5-min Rain = 0
KCH1 100657Z 02007KT 10/08 A2994 RMK A01 T00950077  RH  089%=      5-min Rain = 0
KCH1 100658Z 02005KT 10/08 A2994 RMK A01 T00950077  RH  089%=      5-min Rain = 0
KCH1 100659Z 03004KT 10/08 A2994 RMK A01 T00950077  RH  089%=      5-min Rain = 0
KCH1 100700Z 03003KT 10/08 A2994 RMK A01 T00950077  RH  089%=      5-min Rain = 0
KCH1 100701Z 05003KT 10/08 A2993 RMK A01 T00950077  RH  089%=      5-min Rain = 0
KCH1 100702Z 07002KT 09/08 A2993 RMK A01 T00940077  RH  089%=      5-min Rain = 0
KCH1 100703Z 09002KT 10/08 A2993 RMK A01 T00950077  RH  089%=      5-min Rain = 0
KCH1 100704Z 10002KT 09/08 A2993 RMK A01 T00940076  RH  089%=      5-min Rain = 0
KCH1 100705Z 11002KT 09/08 A2993 RMK A01 T00940077  RH  089%=      5-min Rain = 0
KCH1 100706Z 09002KT 09/08 A2993 RMK A01 T00940078  RH  090%=      5-min Rain = 0
KCH1 100707Z 07003KT 10/08 A2993 RMK A01 T00950080  RH  090%=      5-min Rain = 0
KCH1 100708Z 07003KT 10/08 A2993 RMK A01 T00960080  RH  090%=      5-min Rain = 0
KCH1 100709Z 07004KT 10/08 A2994 RMK A01 T00960078  RH  089%=      5-min Rain = 0
KCH1 100710Z 07004KT 10/08 A2994 RMK A01 T00960078  RH  088%=      5-min Rain = 0
KCH1 100711Z 07003KT 10/08 A2994 RMK A01 T00960078  RH  088%=      5-min Rain = 0
KCH1 100712Z 08003KT 10/08 A2994 RMK A01 T00960077  RH  088%=      5-min Rain = 0
KCH1 100713Z 09003KT 10/08 A2994 RMK A01 T00960077  RH  088%=      5-min Rain = 0
KCH1 100714Z 10003KT 10/08 A2993 RMK A01 T00960077  RH  088%=      5-min Rain = 0
KCH1 100715Z 10003KT 10/08 A2993 RMK A01 T00960077  RH  088%=      5-min Rain = 0
KCH1 100716Z 10003KT 10/08 A2993 RMK A01 T00960077  RH  088%=      5-min Rain = 0
KCH1 100717Z 11003KT 10/08 A2993 RMK A01 T00960077  RH  088%=      5-min Rain = 0
KCH1 100718Z 10003KT 10/08 A2993 RMK A01 T00960076  RH  087%=      5-min Rain = 0
KCH1 100719Z 09003KT 10/08 A2993 RMK A01 T00960076  RH  087%=      5-min Rain = 0
KCH1 100720Z 07003KT 10/08 A2993 RMK A01 T00960077  RH  088%=      5-min Rain = 0
KCH1 100721Z 05003KT 10/08 A2993 RMK A01 T00950075  RH  087%=      5-min Rain = 0
KCH1 100722Z 03003KT 09/07 A2994 RMK A01 T00940074  RH  087%=      5-min Rain = 0
KCH1 100723Z 03004KT 09/07 A2994 RMK A01 T00930074  RH  088%=      5-min Rain = 0
KCH1 100724Z 04004KT 09/07 A2994 RMK A01 T00930074  RH  088%=      5-min Rain = 0
KCH1 100725Z 05004KT 09/08 A2994 RMK A01 T00930075  RH  089%=      5-min Rain = 0
KCH1 100726Z 05004KT 09/08 A2994 RMK A01 T00930076  RH  089%=      5-min Rain = 0
KCH1 100727Z 06004KT 09/08 A2994 RMK A01 T00930076  RH  089%=      5-min Rain = 0
KCH1 100728Z 07004KT 09/08 A2993 RMK A01 T00930075  RH  089%=      5-min Rain = 0
KCH1 100729Z 08004KT 09/08 A2993 RMK A01 T00930075  RH  089%=      5-min Rain = 0
KCH1 100730Z 08004KT 09/08 A2994 RMK A01 T00920075  RH  089%=      5-min Rain = 0
KCH1 100731Z 08004KT 09/08 A2994 RMK A01 T00920075  RH  089%=      5-min Rain = 0
KCH1 100732Z 08004KT 09/07 A2994 RMK A01 T00920074  RH  089%=      5-min Rain = 0
KCH1 100733Z 08004KT 09/08 A2994 RMK A01 T00910075  RH  089%=      5-min Rain = 0
KCH1 100734Z 08004KT 09/08 A2993 RMK A01 T00920075  RH  089%=      5-min Rain = 0
KCH1 100735Z 09003KT 09/08 A2993 RMK A01 T00910075  RH  090%=      5-min Rain = 0
KCH1 100736Z 09004KT 09/08 A2993 RMK A01 T00910075  RH  090%=      5-min Rain = 0
KCH1 100737Z 11004KT 09/08 A2993 RMK A01 T00910075  RH  090%=      5-min Rain = 0
KCH1 100738Z 12004KT 09/08 A2993 RMK A01 T00910076  RH  091%=      5-min Rain = 0
KCH1 100739Z 12005KT 09/08 A2993 RMK A01 T00910076  RH  090%=      5-min Rain = 0
KCH1 100740Z 12005KT 09/08 A2993 RMK A01 T00900075  RH  090%=      5-min Rain = 0
KCH1 100741Z 13006KT 09/08 A2993 RMK A01 T00900075  RH  090%=      5-min Rain = 0
KCH1 100742Z 12005KT 09/07 A2993 RMK A01 T00900074  RH  090%=      5-min Rain = 0
KCH1 100743Z 11005KT 09/07 A2993 RMK A01 T00890073  RH  090%=      5-min Rain = 0
KCH1 100744Z 10005KT 09/08 A2993 RMK A01 T00890075  RH  091%=      5-min Rain = 0
KCH1 100745Z 07004KT 09/08 A2993 RMK A01 T00890075  RH  091%=      5-min Rain = 0
KCH1 100746Z 03005KT 09/07 A2993 RMK A01 T00890074  RH  090%=      5-min Rain = 0
KCH1 100747Z 03005KT 09/07 A2994 RMK A01 T00870071  RH  090%=      5-min Rain = 0
KCH1 100748Z 04005KT 09/07 A2994 RMK A01 T00850070  RH  090%=      5-min Rain = 0
KCH1 100749Z 04005KT 09/07 A2994 RMK A01 T00850071  RH  091%=      5-min Rain = 0
KCH1 100750Z 05004KT 09/07 A2994 RMK A01 T00850072  RH  091%=      5-min Rain = 0
KCH1 100751Z 07004KT 09/07 A2993 RMK A01 T00850073  RH  092%=      5-min Rain = 0
KCH1 100752Z 08004KT 09/08 A2993 RMK A01 T00860075  RH  093%=      5-min Rain = 0
KCH1 100753Z 10003KT 09/08 A2993 RMK A01 T00870076  RH  093%=      5-min Rain = 0
KCH1 100754Z 11004KT 09/08 A2993 RMK A01 T00870075  RH  092%=      5-min Rain = 0
KCH1 100755Z 12004KT 09/07 A2993 RMK A01 T00870074  RH  092%=      5-min Rain = 0
KCH1 100756Z 13005KT 09/08 A2992 RMK A01 T00870075  RH  093%=      5-min Rain = 0
KCH1 100757Z 13005KT 09/08 A2992 RMK A01 T00870075  RH  092%=      5-min Rain = 0
KCH1 100758Z 14005KT 09/07 A2992 RMK A01 T00860074  RH  092%=      5-min Rain = 0
KCH1 100759Z 13005KT 09/07 A2992 RMK A01 T00860074  RH  092%=      5-min Rain = 0
KCH1 100800Z 12004KT 09/08 A2992 RMK A01 T00860075  RH  093%=      5-min Rain = 0
KCH1 100801Z 12003KT 09/08 A2992 RMK A01 T00860075  RH  093%=      5-min Rain = 0
KCH1 100802Z 10002KT 09/08 A2992 RMK A01 T00860075  RH  093%=      5-min Rain = 0
KCH1 100803Z 05002KT 09/08 A2993 RMK A01 T00860075  RH  093%=      5-min Rain = 0
KCH1 100804Z 03003KT 09/08 A2993 RMK A01 T00860075  RH  093%=      5-min Rain = 0
KCH1 100805Z 03004KT 09/07 A2993 RMK A01 T00860074  RH  092%=      5-min Rain = 0
KCH1 100806Z 04004KT 09/07 A2993 RMK A01 T00850073  RH  092%=      5-min Rain = 0
KCH1 100807Z 04003KT 08/07 A2993 RMK A01 T00840073  RH  093%=      5-min Rain = 0
KCH1 100808Z 06003KT 09/07 A2993 RMK A01 T00850074  RH  093%=      5-min Rain = 0
KCH1 100809Z 06003KT 09/07 A2992 RMK A01 T00850074  RH  093%=      5-min Rain = 0
KCH1 100810Z 08003KT 08/07 A2992 RMK A01 T00840074  RH  093%=      5-min Rain = 0
KCH1 100811Z 09003KT 09/07 A2992 RMK A01 T00850074  RH  093%=      5-min Rain = 0
KCH1 100812Z 10002KT 08/07 A2992 RMK A01 T00840074  RH  093%=      5-min Rain = 0
KCH1 100813Z 09003KT 08/07 A2992 RMK A01 T00840073  RH  093%=      5-min Rain = 0
KCH1 100814Z 09003KT 08/07 A2992 RMK A01 T00830073  RH  093%=      5-min Rain = 0
KCH1 100815Z 09003KT 08/08 A2992 RMK A01 T00840075  RH  094%=      5-min Rain = 0
KCH1 100816Z 08003KT 09/08 A2992 RMK A01 T00850077  RH  094%=      5-min Rain = 0
KCH1 100817Z 08003KT 09/08 A2992 RMK A01 T00860077  RH  095%=      5-min Rain = 0
KCH1 100818Z 08003KT 09/08 A2992 RMK A01 T00870078  RH  094%=      5-min Rain = 0
KCH1 100819Z 08003KT 09/08 A2992 RMK A01 T00870078  RH  094%=      5-min Rain = 0
KCH1 100820Z 07003KT 09/08 A2992 RMK A01 T00870078  RH  094%=      5-min Rain = 0
KCH1 100821Z 07003KT 09/08 A2992 RMK A01 T00870077  RH  093%=      5-min Rain = 0
KCH1 100822Z 07003KT 09/08 A2992 RMK A01 T00870076  RH  093%=      5-min Rain = 0
KCH1 100823Z 07002KT 09/08 A2992 RMK A01 T00860076  RH  093%=      5-min Rain = 0
KCH1 100824Z 06002KT 09/07 A2992 RMK A01 T00850074  RH  093%=      5-min Rain = 0
KCH1 100825Z 04003KT 08/07 A2992 RMK A01 T00840073  RH  093%=      5-min Rain = 0
KCH1 100826Z 03003KT 08/07 A2992 RMK A01 T00830072  RH  093%=      5-min Rain = 0
KCH1 100827Z 03003KT 08/07 A2992 RMK A01 T00820071  RH  093%=      5-min Rain = 0
KCH1 100828Z 04004KT 08/07 A2992 RMK A01 T00820071  RH  093%=      5-min Rain = 0
KCH1 100829Z 03003KT 08/07 A2992 RMK A01 T00810071  RH  094%=      5-min Rain = 0
KCH1 100830Z 02004KT 08/07 A2992 RMK A01 T00810072  RH  094%=      5-min Rain = 0
KCH1 100831Z 03004KT 08/07 A2992 RMK A01 T00810072  RH  094%=      5-min Rain = 0
KCH1 100832Z 03003KT 08/07 A2992 RMK A01 T00820073  RH  094%=      5-min Rain = 0
KCH1 100833Z 04003KT 08/07 A2992 RMK A01 T00820074  RH  095%=      5-min Rain = 0
KCH1 100834Z 05003KT 08/08 A2992 RMK A01 T00830075  RH  095%=      5-min Rain = 0
KCH1 100835Z 05003KT 08/08 A2992 RMK A01 T00840076  RH  095%=      5-min Rain = 0
KCH1 100836Z 05003KT 08/08 A2992 RMK A01 T00840076  RH  095%=      5-min Rain = 0
KCH1 100837Z 05003KT 08/08 A2992 RMK A01 T00840076  RH  095%=      5-min Rain = 0
KCH1 100838Z 04004KT 08/08 A2992 RMK A01 T00840075  RH  095%=      5-min Rain = 0
KCH1 100839Z 04004KT 08/08 A2992 RMK A01 T00830075  RH  094%=      5-min Rain = 0
KCH1 100840Z 03005KT 08/07 A2992 RMK A01 T00830073  RH  094%=      5-min Rain = 0
KCH1 100841Z 03005KT 08/07 A2992 RMK A01 T00810070  RH  093%=      5-min Rain = 0
KCH1 100842Z 03004KT 08/07 A2992 RMK A01 T00780067  RH  093%=      5-min Rain = 0
KCH1 100843Z 03004KT 08/07 A2992 RMK A01 T00770066  RH  093%=      5-min Rain = 0
KCH1 100844Z 04004KT 08/07 A2992 RMK A01 T00760066  RH  093%=      5-min Rain = 0
KCH1 100845Z 05004KT 08/07 A2992 RMK A01 T00760066  RH  094%=      5-min Rain = 0
KCH1 100846Z 05004KT 08/07 A2992 RMK A01 T00760067  RH  094%=      5-min Rain = 0
KCH1 100847Z 06004KT 08/07 A2992 RMK A01 T00760069  RH  095%=      5-min Rain = 0
KCH1 100848Z 06004KT 08/07 A2992 RMK A01 T00770070  RH  095%=      5-min Rain = 0
KCH1 100849Z 05003KT 08/07 A2992 RMK A01 T00770070  RH  095%=      5-min Rain = 0
KCH1 100850Z 05003KT 08/07 A2992 RMK A01 T00780071  RH  095%=      5-min Rain = 0
KCH1 100851Z 04003KT 08/07 A2992 RMK A01 T00770070  RH  095%=      5-min Rain = 0
KCH1 100852Z 04003KT 08/07 A2992 RMK A01 T00770069  RH  095%=      5-min Rain = 0
KCH1 100853Z 04004KT 08/07 A2992 RMK A01 T00760069  RH  095%=      5-min Rain = 0
KCH1 100854Z 04004KT 08/07 A2993 RMK A01 T00750068  RH  095%=      5-min Rain = 0
KCH1 100855Z 04004KT 08/07 A2993 RMK A01 T00750067  RH  095%=      5-min Rain = 0
KCH1 100856Z 04004KT 07/07 A2993 RMK A01 T00740066  RH  095%=      5-min Rain = 0
KCH1 100857Z 03004KT 07/07 A2993 RMK A01 T00740067  RH  095%=      5-min Rain = 0
KCH1 100858Z 36004KT 07/07 A2993 RMK A01 T00740067  RH  095%=      5-min Rain = 0
KCH1 100859Z 33004KT 07/07 A2993 RMK A01 T00740067  RH  095%=      5-min Rain = 0
KCH1 100900Z 32004KT 07/07 A2993 RMK A01 T00730066  RH  095%=      5-min Rain = 0
KCH1 100901Z 32004KT 07/07 A2993 RMK A01 T00730067  RH  096%=      5-min Rain = 0
KCH1 100902Z 32003KT 07/07 A2993 RMK A01 T00740068  RH  096%=      5-min Rain = 0
KCH1 100903Z 02001KT 08/07 A2993 RMK A01 T00750070  RH  096%=      5-min Rain = 0
KCH1 100904Z 03003KT 08/07 A2993 RMK A01 T00750070  RH  096%=      5-min Rain = 0
KCH1 100905Z 06004KT 08/07 A2993 RMK A01 T00750069  RH  096%=      5-min Rain = 0
KCH1 100906Z 04009KT 07/06 A2993 RMK A01 T00700060  RH  094%=      5-min Rain = 0
KCH1 100907Z 04008KT 06/05 A2993 RMK A01 T00640050  RH  091%=      5-min Rain = 0
KCH1 100908Z 04007KT 06/04 A2993 RMK A01 T00610042  RH  088%=      5-min Rain = 0
KCH1 100909Z 05007KT 06/04 A2993 RMK A01 T00600037  RH  085%=      5-min Rain = 0
KCH1 100910Z 06008KT 06/03 A2993 RMK A01 T00580031  RH  083%=      5-min Rain = 0
KCH1 100911Z 06008KT 06/03 A2993 RMK A01 T00570027  RH  081%=      5-min Rain = 0
KCH1 100912Z 05008KT 06/02 A2993 RMK A01 T00570024  RH  080%=      5-min Rain = 0
KCH1 100913Z 05008KT 06/02 A2993 RMK A01 T00550023  RH  079%=      5-min Rain = 0
KCH1 100914Z 04007KT 06/02 A2994 RMK A01 T00550021  RH  079%=      5-min Rain = 0
KCH1 100915Z 05006KT 05/02 A2993 RMK A01 T00540021  RH  079%=      5-min Rain = 0
KCH1 100916Z 05006KT 05/02 A2993 RMK A01 T00540020  RH  078%=      5-min Rain = 0
KCH1 100917Z 05006KT 05/02 A2993 RMK A01 T00530019  RH  078%=      5-min Rain = 0
KCH1 100918Z 04004KT 05/02 A2993 RMK A01 T00520018  RH  078%=      5-min Rain = 0
KCH1 100919Z 03003KT 05/02 A2994 RMK A01 T00520018  RH  079%=      5-min Rain = 0
KCH1 100920Z 00004KT 05/02 A2994 RMK A01 T00510018  RH  079%=      5-min Rain = 0
KCH1 100921Z 00004KT 05/02 A2994 RMK A01 T00510021  RH  081%=      5-min Rain = 0
KCH1 100922Z 36005KT 05/02 A2994 RMK A01 T00510021  RH  080%=      5-min Rain = 0
KCH1 100923Z 01005KT 05/02 A2994 RMK A01 T00510018  RH  079%=      5-min Rain = 0
KCH1 100924Z 02003KT 05/01 A2994 RMK A01 T00510014  RH  077%=      5-min Rain = 0
KCH1 100925Z 00004KT 05/01 A2994 RMK A01 T00510013  RH  077%=      5-min Rain = 0
KCH1 100926Z 00004KT 05/01 A2994 RMK A01 T00500012  RH  077%=      5-min Rain = 0
KCH1 100927Z 01005KT 05/01 A2994 RMK A01 T00490010  RH  076%=      5-min Rain = 0
KCH1 100928Z 00005KT 05/01 A2994 RMK A01 T00480005  RH  074%=      5-min Rain = 0
KCH1 100929Z 36005KT 05/00 A2994 RMK A01 T00470002  RH  072%=      5-min Rain = 0
KCH1 100930Z 00005KT 05/M00 A2994 RMK A01 T00451001  RH  072%=      5-min Rain = 0
KCH1 100931Z 00006KT 04/M00 A2994 RMK A01 T00441004  RH  071%=      5-min Rain = 0
KCH1 100932Z 35008KT 04/M01 A2994 RMK A01 T00441006  RH  070%=      5-min Rain = 0
KCH1 100933Z 00006KT 04/M01 A2994 RMK A01 T00441008  RH  069%=      5-min Rain = 0
KCH1 100934Z 00007KT 04/M01 A2994 RMK A01 T00431009  RH  069%=      5-min Rain = 0
KCH1 100935Z 00006KT 04/M01 A2994 RMK A01 T00431012  RH  068%=      5-min Rain = 0
KCH1 100936Z 36005KT 04/M01 A2994 RMK A01 T00421012  RH  068%=      5-min Rain = 0
KCH1 100937Z 01005KT 04/M01 A2994 RMK A01 T00411012  RH  068%=      5-min Rain = 0
KCH1 100938Z 00004KT 04/M01 A2994 RMK A01 T00401014  RH  068%=      5-min Rain = 0
KCH1 100939Z 01005KT 04/M01 A2994 RMK A01 T00401014  RH  068%=      5-min Rain = 0
KCH1 100940Z 01004KT 04/M02 A2994 RMK A01 T00391015  RH  068%=      5-min Rain = 0
KCH1 100941Z 00005KT 04/M02 A2994 RMK A01 T00391015  RH  068%=      5-min Rain = 0
KCH1 100942Z 01005KT 04/M02 A2994 RMK A01 T00391016  RH  068%=      5-min Rain = 0
KCH1 100943Z 01004KT 04/M02 A2994 RMK A01 T00381017  RH  067%=      5-min Rain = 0
KCH1 100944Z 00005KT 04/M02 A2994 RMK A01 T00371018  RH  067%=      5-min Rain = 0
KCH1 100945Z 36004KT 04/M02 A2994 RMK A01 T00371019  RH  067%=      5-min Rain = 0
KCH1 100946Z 35005KT 04/M02 A2994 RMK A01 T00361020  RH  067%=      5-min Rain = 0
KCH1 100947Z 36005KT 04/M02 A2994 RMK A01 T00361020  RH  067%=      5-min Rain = 0
KCH1 100948Z 00006KT 04/M02 A2994 RMK A01 T00361021  RH  066%=      5-min Rain = 0
KCH1 100949Z 01005KT 04/M02 A2994 RMK A01 T00361022  RH  066%=      5-min Rain = 0
KCH1 100950Z 00006KT 04/M02 A2994 RMK A01 T00361022  RH  066%=      5-min Rain = 0
KCH1 100951Z 01004KT 04/M02 A2994 RMK A01 T00361022  RH  066%=      5-min Rain = 0
KCH1 100952Z 01003KT 04/M02 A2994 RMK A01 T00351023  RH  065%=      5-min Rain = 0
KCH1 100953Z 02004KT 04/M02 A2995 RMK A01 T00351023  RH  066%=      5-min Rain = 0
KCH1 100954Z 01003KT 03/M02 A2995 RMK A01 T00341023  RH  066%=      5-min Rain = 0
KCH1 100955Z 01003KT 03/M02 A2995 RMK A01 T00331024  RH  066%=      5-min Rain = 0
KCH1 100956Z 02003KT 03/M03 A2995 RMK A01 T00331025  RH  066%=      5-min Rain = 0
KCH1 100957Z 01003KT 03/M02 A2995 RMK A01 T00331024  RH  066%=      5-min Rain = 0
KCH1 100958Z 00004KT 03/M03 A2995 RMK A01 T00331025  RH  066%=      5-min Rain = 0
KCH1 100959Z 01003KT 03/M03 A2995 RMK A01 T00321026  RH  065%=      5-min Rain = 0
KCH1 101000Z 03004KT 03/M03 A2995 RMK A01 T00321027  RH  065%=      5-min Rain = 0
KCH1 101001Z 03004KT 03/M03 A2995 RMK A01 T00311027  RH  066%=      5-min Rain = 0
KCH1 101002Z 01004KT 03/M03 A2995 RMK A01 T00311027  RH  066%=      5-min Rain = 0
KCH1 101003Z 01003KT 03/M03 A2995 RMK A01 T00301027  RH  066%=      5-min Rain = 0
KCH1 101004Z 00002KT 03/M03 A2995 RMK A01 T00301028  RH  066%=      5-min Rain = 0
KCH1 101005Z 01002KT 03/M03 A2995 RMK A01 T00291028  RH  066%=      5-min Rain = 0
KCH1 101006Z 36003KT 03/M03 A2995 RMK A01 T00291028  RH  066%=      5-min Rain = 0
KCH1 101007Z 35004KT 03/M03 A2995 RMK A01 T00291030  RH  065%=      5-min Rain = 0
KCH1 101008Z 35003KT 03/M03 A2995 RMK A01 T00291030  RH  065%=      5-min Rain = 0
KCH1 101009Z 00006KT 03/M03 A2995 RMK A01 T00281031  RH  065%=      5-min Rain = 0
KCH1 101010Z 00007KT 03/M03 A2995 RMK A01 T00271032  RH  065%=      5-min Rain = 0
KCH1 101011Z 00007KT 03/M03 A2995 RMK A01 T00271034  RH  064%=      5-min Rain = 0
KCH1 101012Z 00009KT 03/M04 A2995 RMK A01 T00261036  RH  064%=      5-min Rain = 0
KCH1 101013Z 00008KT 03/M04 A2995 RMK A01 T00261038  RH  063%=      5-min Rain = 0
KCH1 101014Z 36007KT 03/M04 A2995 RMK A01 T00251039  RH  063%=      5-min Rain = 0
KCH1 101015Z 36008KT 03/M04 A2996 RMK A01 T00251040  RH  062%=      5-min Rain = 0
KCH1 101016Z 36008KT 02/M04 A2995 RMK A01 T00241041  RH  062%=      5-min Rain = 0
KCH1 101017Z 00008KT 02/M04 A2995 RMK A01 T00241042  RH  062%=      5-min Rain = 0
KCH1 101018Z 36006KT 02/M04 A2995 RMK A01 T00231042  RH  062%=      5-min Rain = 0
KCH1 101019Z 35007KT 02/M04 A2995 RMK A01 T00221043  RH  062%=      5-min Rain = 0
KCH1 101020Z 00006KT 02/M04 A2996 RMK A01 T00211044  RH  062%=      5-min Rain = 0
KCH1 101021Z 00006KT 02/M04 A2996 RMK A01 T00201044  RH  063%=      5-min Rain = 0
KCH1 101022Z 00006KT 02/M04 A2996 RMK A01 T00201044  RH  063%=      5-min Rain = 0
KCH1 101023Z 00006KT 02/M04 A2996 RMK A01 T00191044  RH  063%=      5-min Rain = 0
KCH1 101024Z 00005KT 02/M05 A2996 RMK A01 T00191045  RH  063%=      5-min Rain = 0
KCH1 101025Z 00006KT 02/M05 A2996 RMK A01 T00181045  RH  063%=      5-min Rain = 0
KCH1 101026Z 01006KT 02/M05 A2996 RMK A01 T00171045  RH  063%=      5-min Rain = 0
KCH1 101027Z 36006KT 02/M05 A2996 RMK A01 T00171045  RH  063%=      5-min Rain = 0
KCH1 101028Z 00006KT 02/M05 A2996 RMK A01 T00171046  RH  063%=      5-min Rain = 0
KCH1 101029Z 01005KT 02/M05 A2996 RMK A01 T00161047  RH  063%=      5-min Rain = 0
KCH1 101030Z 36007KT 02/M05 A2996 RMK A01 T00161048  RH  063%=      5-min Rain = 0
KCH1 101031Z 36008KT 02/M05 A2996 RMK A01 T00151049  RH  062%=      5-min Rain = 0
KCH1 101032Z 00009KT 01/M05 A2996 RMK A01 T00141051  RH  062%=      5-min Rain = 0
KCH1 101033Z 36010KT 01/M05 A2996 RMK A01 T00141052  RH  061%=      5-min Rain = 0
KCH1 101034Z 36010KT 01/M05 A2996 RMK A01 T00141053  RH  061%=      5-min Rain = 0
KCH1 101035Z 36009KT 01/M05 A2996 RMK A01 T00131053  RH  061%=      5-min Rain = 0
KCH1 101036Z 00012KT 01/M06 A2996 RMK A01 T00121055  RH  061%=      5-min Rain = 0
KCH1 101037Z 00010KT 01/M06 A2996 RMK A01 T00121056  RH  061%=      5-min Rain = 0
KCH1 101038Z 00008KT 01/M06 A2996 RMK A01 T00111056  RH  061%=      5-min Rain = 0
KCH1 101039Z 00012KT 01/M06 A2996 RMK A01 T00101057  RH  061%=      5-min Rain = 0
KCH1 101040Z 01011KT 01/M06 A2996 RMK A01 T00101057  RH  061%=      5-min Rain = 0
KCH1 101041Z 01012KT 01/M06 A2996 RMK A01 T00091057  RH  061%=      5-min Rain = 0
KCH1 101042Z 36009KT 01/M06 A2997 RMK A01 T00091057  RH  061%=      5-min Rain = 0
KCH1 101043Z 36013KT 01/M06 A2997 RMK A01 T00091058  RH  061%=      5-min Rain = 0
KCH1 101044Z 36009KT 01/M06 A2997 RMK A01 T00091059  RH  060%=      5-min Rain = 0
KCH1 101045Z 00010KT 01/M06 A2997 RMK A01 T00081060  RH  060%=      5-min Rain = 0
KCH1 101046Z 01008KT 01/M06 A2997 RMK A01 T00071060  RH  061%=      5-min Rain = 0
KCH1 101047Z 01007KT 01/M06 A2997 RMK A01 T00071060  RH  061%=      5-min Rain = 0
KCH1 101048Z 00010KT 01/M06 A2997 RMK A01 T00061060  RH  061%=      5-min Rain = 0
KCH1 101049Z 01010KT 01/M06 A2997 RMK A01 T00061060  RH  061%=      5-min Rain = 0
KCH1 101050Z 01011KT 01/M06 A2997 RMK A01 T00061061  RH  061%=      5-min Rain = 0
KCH1 101051Z 01009KT 01/M06 A2997 RMK A01 T00061061  RH  061%=      5-min Rain = 0
KCH1 101052Z 02006KT 01/M06 A2997 RMK A01 T00061061  RH  061%=      5-min Rain = 0
KCH1 101053Z 36006KT 01/M06 A2997 RMK A01 T00061061  RH  061%=      5-min Rain = 0
KCH1 101054Z 00005KT 01/M06 A2998 RMK A01 T00051061  RH  061%=      5-min Rain = 0
KCH1 101055Z 00010KT 01/M06 A2998 RMK A01 T00051061  RH  061%=      5-min Rain = 0
KCH1 101056Z 01010KT 01/M06 A2998 RMK A01 T00051062  RH  061%=      5-min Rain = 0
KCH1 101057Z 00008KT 00/M06 A2998 RMK A01 T00041062  RH  061%=      5-min Rain = 0
KCH1 101058Z 36010KT 00/M06 A2998 RMK A01 T00041062  RH  061%=      5-min Rain = 0
KCH1 101059Z 00009KT 00/M06 A2998 RMK A01 T00041063  RH  061%=      5-min Rain = 0
KCH1 101100Z 01012KT 00/M06 A2998 RMK A01 T00041063  RH  061%=      5-min Rain = 0
KCH1 101101Z 01010KT 00/M06 A2998 RMK A01 T00041064  RH  060%=      5-min Rain = 0
KCH1 101102Z 00008KT 00/M06 A2998 RMK A01 T00041064  RH  060%=      5-min Rain = 0
KCH1 101103Z 00010G16KT 00/M06 A2998 RMK A01 T00041064  RH  061%=      5-min Rain = 0
KCH1 101104Z 01012KT 00/M06 A2998 RMK A01 T00041064  RH  060%=      5-min Rain = 0
KCH1 101105Z 00008KT 00/M06 A2998 RMK A01 T00041064  RH  060%=      5-min Rain = 0
KCH1 101106Z 01008KT 00/M06 A2998 RMK A01 T00041064  RH  060%=      5-min Rain = 0
KCH1 101107Z 01008KT 00/M06 A2998 RMK A01 T00041064  RH  060%=      5-min Rain = 0
KCH1 101108Z 00006KT 00/M06 A2998 RMK A01 T00041063  RH  061%=      5-min Rain = 0
KCH1 101109Z 00007KT 00/M06 A2998 RMK A01 T00041064  RH  061%=      5-min Rain = 0
KCH1 101110Z 35010KT 00/M06 A2998 RMK A01 T00031064  RH  061%=      5-min Rain = 0
KCH1 101111Z 01009KT 00/M07 A2998 RMK A01 T00031065  RH  060%=      5-min Rain = 0
KCH1 101112Z 00007KT 00/M07 A2998 RMK A01 T00031065  RH  060%=      5-min Rain = 0
KCH1 101113Z 00009KT 00/M07 A2998 RMK A01 T00031065  RH  060%=      5-min Rain = 0
KCH1 101114Z 00007KT 00/M07 A2998 RMK A01 T00021066  RH  060%=      5-min Rain = 0
KCH1 101115Z 01006KT 00/M07 A2998 RMK A01 T00011066  RH  060%=      5-min Rain = 0
KCH1 101116Z 00007KT 00/M07 A2998 RMK A01 T00011066  RH  061%=      5-min Rain = 0
KCH1 101117Z 00010G15KT 00/M07 A2998 RMK A01 T00011066  RH  061%=      5-min Rain = 0
KCH1 101118Z 01011KT 00/07 A2998 RMK A01 T00-00-69  RH  060%=      5-min Rain = 0
KCH1 101119Z 01011G18KT M00/M07 A2998 RMK A01 T10011070  RH  060%=      5-min Rain = 0
KCH1 101120Z 01012G18KT M00/M07 A2998 RMK A01 T10021071  RH  060%=      5-min Rain = 0
KCH1 101121Z 00010KT M00/M07 A2998 RMK A01 T10031072  RH  060%=      5-min Rain = 0
KCH1 101122Z 01011KT M00/M07 A2998 RMK A01 T10031072  RH  060%=      5-min Rain = 0
KCH1 101123Z 01012KT M00/M07 A2998 RMK A01 T10041073  RH  060%=      5-min Rain = 0
KCH1 101124Z 00014KT M01/M07 A2998 RMK A01 T10051074  RH  060%=      5-min Rain = 0
KCH1 101125Z 00014KT M01/M07 A2998 RMK A01 T10051074  RH  060%=      5-min Rain = 0
KCH1 101126Z 01012KT M01/M07 A2998 RMK A01 T10061074  RH  060%=      5-min Rain = 0
KCH1 101127Z 00011KT M01/M07 A2998 RMK A01 T10061074  RH  060%=      5-min Rain = 0
KCH1 101128Z 00015KT M01/M08 A2998 RMK A01 T10061075  RH  060%=      5-min Rain = 0
KCH1 101129Z 02010KT M01/M08 A2998 RMK A01 T10071075  RH  060%=      5-min Rain = 0
KCH1 101130Z 01012KT M01/M08 A2998 RMK A01 T10071075  RH  060%=      5-min Rain = 0
KCH1 101131Z 00011KT M01/M08 A2998 RMK A01 T10081075  RH  060%=      5-min Rain = 0
KCH1 101132Z 00011G17KT M01/M08 A2998 RMK A01 T10081076  RH  060%=      5-min Rain = 0
KCH1 101133Z 00014KT M01/M08 A2998 RMK A01 T10081076  RH  060%=      5-min Rain = 0
KCH1 101134Z 01011KT M01/M08 A2998 RMK A01 T10081076  RH  060%=      5-min Rain = 0
KCH1 101135Z 01013KT M01/M08 A2998 RMK A01 T10091076  RH  060%=      5-min Rain = 0
KCH1 101136Z 01012KT M01/M08 A2998 RMK A01 T10091076  RH  060%=      5-min Rain = 0
KCH1 101137Z 01010KT M01/M08 A2998 RMK A01 T10091076  RH  060%=      5-min Rain = 0
KCH1 101138Z 00009KT M01/M08 A2998 RMK A01 T10101076  RH  061%=      5-min Rain = 0
KCH1 101139Z 01011KT M01/M08 A2998 RMK A01 T10101076  RH  061%=      5-min Rain = 0
KCH1 101140Z 36010KT M01/M08 A2998 RMK A01 T10101076  RH  061%=      5-min Rain = 0
KCH1 101141Z 00012G19KT M01/M08 A2998 RMK A01 T10111077  RH  061%=      5-min Rain = 0
KCH1 101142Z 00016G22KT M01/M08 A2998 RMK A01 T10111077  RH  061%=      5-min Rain = 0
KCH1 101143Z 01016G21KT M01/M08 A2998 RMK A01 T10121078  RH  061%=      5-min Rain = 0
KCH1 101144Z 00013KT M01/M08 A2998 RMK A01 T10121078  RH  061%=      5-min Rain = 0
KCH1 101145Z 01012G18KT M01/M08 A2998 RMK A01 T10131078  RH  061%=      5-min Rain = 0
KCH1 101146Z 36010KT M01/M08 A2998 RMK A01 T10131078  RH  061%=      5-min Rain = 0
KCH1 101147Z 00010KT M01/M08 A2998 RMK A01 T10131078  RH  061%=      5-min Rain = 0
KCH1 101148Z 01013KT M01/M08 A2998 RMK A01 T10131078  RH  061%=      5-min Rain = 0
KCH1 101149Z 00011KT M01/M08 A2998 RMK A01 T10131078  RH  061%=      5-min Rain = 0
KCH1 101150Z 01012G17KT M01/M08 A2998 RMK A01 T10141078  RH  061%=      5-min Rain = 0
KCH1 101151Z 00010KT M01/M08 A2998 RMK A01 T10141078  RH  061%=      5-min Rain = 0
KCH1 101152Z 01013G19KT M01/M08 A2998 RMK A01 T10141078  RH  062%=      5-min Rain = 0
KCH1 101153Z 01016KT M01/M08 A2998 RMK A01 T10141079  RH  062%=      5-min Rain = 0
KCH1 101154Z 00014KT M02/M08 A2998 RMK A01 T10151079  RH  062%=      5-min Rain = 0
KCH1 101155Z 01008KT M02/M08 A2998 RMK A01 T10151079  RH  062%=      5-min Rain = 0
KCH1 101156Z 00011KT M02/M08 A2999 RMK A01 T10151079  RH  062%=      5-min Rain = 0
KCH1 101157Z 01011KT M02/M08 A2999 RMK A01 T10151079  RH  062%=      5-min Rain = 0
KCH1 101158Z 01012KT M02/M08 A2999 RMK A01 T10151078  RH  062%=      5-min Rain = 0
KCH1 101159Z 01010KT M02/M08 A2999 RMK A01 T10151078  RH  062%=      5-min Rain = 0
KCH1 101200Z 01011KT M02/M08 A2999 RMK A01 T10151078  RH  062%=      5-min Rain = 0
KCH1 101201Z 01010KT M02/M08 A2999 RMK A01 T10151078  RH  062%=      5-min Rain = 0
KCH1 101202Z 01010KT M02/M08 A2999 RMK A01 T10151078  RH  062%=      5-min Rain = 0
KCH1 101203Z 00011KT M02/M08 A2998 RMK A01 T10161078  RH  062%=      5-min Rain = 0
KCH1 101204Z 01011KT M02/M08 A2999 RMK A01 T10161078  RH  062%=      5-min Rain = 0
KCH1 101205Z 01010KT M02/M08 A2999 RMK A01 T10161079  RH  062%=      5-min Rain = 0
KCH1 101206Z 01013KT M02/M08 A2999 RMK A01 T10161078  RH  062%=      5-min Rain = 0
KCH1 101207Z 01012G17KT M02/M08 A2999 RMK A01 T10161078  RH  062%=      5-min Rain = 0
KCH1 101208Z 01015KT M02/M08 A2999 RMK A01 T10161079  RH  062%=      5-min Rain = 0
KCH1 101209Z 01015KT M02/M08 A2999 RMK A01 T10161079  RH  062%=      5-min Rain = 0
KCH1 101210Z 02012KT M02/M08 A2999 RMK A01 T10171079  RH  063%=      5-min Rain = 0
KCH1 101211Z 01008KT M02/M08 A2999 RMK A01 T10161078  RH  063%=      5-min Rain = 0
KCH1 101212Z 01009G15KT M02/M08 A2999 RMK A01 T10161078  RH  063%=      5-min Rain = 0
KCH1 101213Z 00009KT M02/M08 A2999 RMK A01 T10161078  RH  063%=      5-min Rain = 0
KCH1 101214Z 00010G15KT M02/M08 A2999 RMK A01 T10161078  RH  063%=      5-min Rain = 0
KCH1 101215Z 01012G18KT M02/M08 A2999 RMK A01 T10171079  RH  063%=      5-min Rain = 0
KCH1 101216Z 00011KT M02/M08 A30 RMK A01 T10171079  RH  063%=      5-min Rain = 0
KCH1 101217Z 36012KT M02/M08 A30 RMK A01 T10171079  RH  063%=      5-min Rain = 0
KCH1 101218Z 36012KT M02/M08 A30 RMK A01 T10171080  RH  063%=      5-min Rain = 0
KCH1 101219Z 36010KT M02/M08 A30 RMK A01 T10181080  RH  063%=      5-min Rain = 0
KCH1 101220Z 02015KT M02/M08 A30 RMK A01 T10171079  RH  063%=      5-min Rain = 0
KCH1 101221Z 01014G19KT M02/M08 A30 RMK A01 T10181080  RH  063%=      5-min Rain = 0
KCH1 101222Z 01014KT M02/M08 A30 RMK A01 T10191080  RH  063%=      5-min Rain = 0
KCH1 101223Z 00014KT M02/M08 A30 RMK A01 T10191080  RH  063%=      5-min Rain = 0
KCH1 101224Z 01010KT M02/M08 A30 RMK A01 T10191080  RH  063%=      5-min Rain = 0
KCH1 101225Z 01012KT M02/M08 A30 RMK A01 T10191080  RH  063%=      5-min Rain = 0
KCH1 101226Z 00011KT M02/M08 A30 RMK A01 T10191080  RH  063%=      5-min Rain = 0
KCH1 101227Z 01012KT M02/M08 A30 RMK A01 T10191080  RH  063%=      5-min Rain = 0
KCH1 101228Z 01012KT M02/M08 A30 RMK A01 T10191080  RH  063%=      5-min Rain = 0
KCH1 101229Z 01009KT M02/M08 A30 RMK A01 T10191081  RH  063%=      5-min Rain = 0
KCH1 101230Z 01013KT M02/M08 A30 RMK A01 T10201081  RH  063%=      5-min Rain = 0
KCH1 101231Z 00016G22KT M02/M08 A30 RMK A01 T10201081  RH  063%=      5-min Rain = 0
KCH1 101232Z 01013KT M02/M08 A30 RMK A01 T10201081  RH  063%=      5-min Rain = 0
KCH1 101233Z 01016G21KT M02/M08 A30 RMK A01 T10211082  RH  063%=      5-min Rain = 0
KCH1 101234Z 01014G20KT M02/M08 A30 RMK A01 T10211082  RH  063%=      5-min Rain = 0
KCH1 101235Z 01012KT M02/M08 A30 RMK A01 T10211082  RH  063%=      5-min Rain = 0
KCH1 101236Z 01008KT M02/M08 A30 RMK A01 T10211082  RH  063%=      5-min Rain = 0
KCH1 101237Z 02008KT M02/M08 A30 RMK A01 T10211081  RH  063%=      5-min Rain = 0
KCH1 101238Z 00007G12KT M02/M08 A30 RMK A01 T10211081  RH  063%=      5-min Rain = 0
KCH1 101239Z 00012KT M02/M08 A30 RMK A01 T10201081  RH  063%=      5-min Rain = 0
KCH1 101240Z 01011KT M02/M08 A30 RMK A01 T10211082  RH  063%=      5-min Rain = 0
KCH1 101241Z 00008KT M02/M08 A30 RMK A01 T10211082  RH  063%=      5-min Rain = 0
KCH1 101242Z 36010KT M02/M08 A30 RMK A01 T10211082  RH  063%=      5-min Rain = 0
KCH1 101243Z 36011KT M02/M08 A30 RMK A01 T10211082  RH  063%=      5-min Rain = 0
KCH1 101244Z 01012G17KT M02/M08 A30 RMK A01 T10211082  RH  063%=      5-min Rain = 0
KCH1 101245Z 01011KT M02/M08 A30 RMK A01 T10211082  RH  063%=      5-min Rain = 0
KCH1 101246Z 00010KT M02/M08 A3001 RMK A01 T10221083  RH  063%=      5-min Rain = 0
KCH1 101247Z 36014KT M02/M08 A30 RMK A01 T10211082  RH  063%=      5-min Rain = 0
KCH1 101248Z 00013G19KT M02/M08 A3001 RMK A01 T10211082  RH  063%=      5-min Rain = 0
KCH1 101249Z 01013G19KT M02/M08 A30 RMK A01 T10211083  RH  063%=      5-min Rain = 0
KCH1 101250Z 01013KT M02/M08 A30 RMK A01 T10211083  RH  063%=      5-min Rain = 0
KCH1 101251Z 01011KT M02/M08 A30 RMK A01 T10221083  RH  063%=      5-min Rain = 0
KCH1 101252Z 01012KT M02/M08 A3001 RMK A01 T10221083  RH  063%=      5-min Rain = 0
KCH1 101253Z 36010KT M02/M08 A3001 RMK A01 T10221083  RH  063%=      5-min Rain = 0
KCH1 101254Z 01008KT M02/M08 A3001 RMK A01 T10221083  RH  063%=      5-min Rain = 0
KCH1 101255Z 01008G15KT M02/M08 A3001 RMK A01 T10221083  RH  063%=      5-min Rain = 0
KCH1 101256Z 01011G16KT M02/M08 A3001 RMK A01 T10221083  RH  063%=      5-min Rain = 0
KCH1 101257Z 01014KT M02/M08 A3001 RMK A01 T10221083  RH  063%=      5-min Rain = 0
KCH1 101258Z 00014KT M02/M08 A3001 RMK A01 T10231084  RH  063%=      5-min Rain = 0
KCH1 101259Z 00010KT M02/M08 A3001 RMK A01 T10231084  RH  063%=      5-min Rain = 0
KCH1 101300Z 01008KT M02/M08 A3001 RMK A01 T10231084  RH  063%=      5-min Rain = 0
KCH1 101301Z 36010G15KT M02/M08 A3001 RMK A01 T10231084  RH  063%=      5-min Rain = 0
KCH1 101302Z 00013KT M02/M08 A3001 RMK A01 T10231084  RH  063%=      5-min Rain = 0
KCH1 101303Z 01016KT M02/M08 A3001 RMK A01 T10231084  RH  063%=      5-min Rain = 0
KCH1 101304Z 01011KT M02/M08 A3001 RMK A01 T10241084  RH  063%=      5-min Rain = 0
KCH1 101305Z 36009KT M02/M08 A3001 RMK A01 T10241084  RH  063%=      5-min Rain = 0
KCH1 101306Z 01011KT M02/M08 A3001 RMK A01 T10241084  RH  063%=      5-min Rain = 0
KCH1 101307Z 01010G15KT M02/M08 A3001 RMK A01 T10241084  RH  063%=      5-min Rain = 0
KCH1 101308Z 01013KT M02/M09 A3001 RMK A01 T10241085  RH  063%=      5-min Rain = 0
KCH1 101309Z 01011G16KT M02/M09 A3001 RMK A01 T10241085  RH  063%=      5-min Rain = 0
KCH1 101310Z 01012G18KT M02/M09 A3001 RMK A01 T10241085  RH  063%=      5-min Rain = 0
KCH1 101311Z 02009G14KT M02/M09 A3001 RMK A01 T10241085  RH  063%=      5-min Rain = 0
KCH1 101312Z 02012KT M02/M08 A3001 RMK A01 T10241084  RH  063%=      5-min Rain = 0
KCH1 101313Z 02010KT M02/M08 A3001 RMK A01 T10241084  RH  063%=      5-min Rain = 0
KCH1 101314Z 01010KT M02/M08 A3001 RMK A01 T10241084  RH  063%=      5-min Rain = 0
KCH1 101315Z 00012KT M02/M09 A3001 RMK A01 T10241085  RH  063%=      5-min Rain = 0
KCH1 101316Z 01012KT M02/M09 A3001 RMK A01 T10241085  RH  063%=      5-min Rain = 0
KCH1 101317Z 01010G16KT M03/M09 A3001 RMK A01 T10251085  RH  063%=      5-min Rain = 0
KCH1 101318Z 01009KT M03/M09 A3001 RMK A01 T10251085  RH  063%=      5-min Rain = 0
KCH1 101319Z 00011KT M03/M09 A3001 RMK A01 T10251085  RH  063%=      5-min Rain = 0
KCH1 101320Z 00011KT M03/M09 A3001 RMK A01 T10251085  RH  063%=      5-min Rain = 0
KCH1 101321Z 01008G13KT M03/M09 A3001 RMK A01 T10251085  RH  063%=      5-min Rain = 0
KCH1 101322Z 00009KT M03/M09 A3001 RMK A01 T10251085  RH  063%=      5-min Rain = 0
KCH1 101323Z 36006KT M03/M09 A3001 RMK A01 T10251085  RH  063%=      5-min Rain = 0
KCH1 101324Z 01012KT M03/M09 A3001 RMK A01 T10251085  RH  063%=      5-min Rain = 0
KCH1 101325Z 36010G16KT M03/M09 A3001 RMK A01 T10251085  RH  063%=      5-min Rain = 0
KCH1 101326Z 01013KT M03/M09 A3001 RMK A01 T10251085  RH  063%=      5-min Rain = 0
KCH1 101327Z 01010KT M03/M09 A3001 RMK A01 T10251085  RH  063%=      5-min Rain = 0
KCH1 101328Z 01010KT M03/M09 A3002 RMK A01 T10261085  RH  064%=      5-min Rain = 0
KCH1 101329Z 01009KT M03/M09 A3002 RMK A01 T10261085  RH  064%=      5-min Rain = 0
KCH1 101330Z 01010KT M03/M09 A3002 RMK A01 T10251085  RH  064%=      5-min Rain = 0
KCH1 101331Z 01007KT M03/M09 A3002 RMK A01 T10261085  RH  064%=      5-min Rain = 0
KCH1 101332Z 01008KT M03/M09 A3002 RMK A01 T10251085  RH  064%=      5-min Rain = 0
KCH1 101333Z 01009KT M03/M09 A3002 RMK A01 T10251085  RH  063%=      5-min Rain = 0
KCH1 101334Z 00012G17KT M03/M09 A3002 RMK A01 T10251086  RH  063%=      5-min Rain = 0
KCH1 101335Z 01013G18KT M03/M09 A3001 RMK A01 T10261086  RH  063%=      5-min Rain = 0
KCH1 101336Z 01013KT M03/M09 A3002 RMK A01 T10261086  RH  063%=      5-min Rain = 0
KCH1 101337Z 01012KT M03/M09 A3002 RMK A01 T10271087  RH  063%=      5-min Rain = 0
KCH1 101338Z 00012KT M03/M09 A3002 RMK A01 T10271087  RH  063%=      5-min Rain = 0
KCH1 101339Z 00012KT M03/M09 A3002 RMK A01 T10271086  RH  064%=      5-min Rain = 0
KCH1 101340Z 00013KT M03/M09 A3002 RMK A01 T10271086  RH  064%=      5-min Rain = 0
KCH1 101341Z 00009KT M03/M09 A3002 RMK A01 T10271087  RH  064%=      5-min Rain = 0
KCH1 101342Z 01008G13KT M03/M09 A3002 RMK A01 T10271087  RH  064%=      5-min Rain = 0
KCH1 101343Z 00012KT M03/M09 A3002 RMK A01 T10271087  RH  064%=      5-min Rain = 0
KCH1 101344Z 36011KT M03/M09 A3002 RMK A01 T10281087  RH  064%=      5-min Rain = 0
KCH1 101345Z 01010KT M03/M09 A3002 RMK A01 T10271087  RH  063%=      5-min Rain = 0
KCH1 101346Z 00008KT M03/M09 A3002 RMK A01 T10271087  RH  064%=      5-min Rain = 0
KCH1 101347Z 36012KT M03/M09 A3002 RMK A01 T10271086  RH  064%=      5-min Rain = 0
KCH1 101348Z 01014KT M03/M09 A3002 RMK A01 T10271087  RH  063%=      5-min Rain = 0
KCH1 101349Z 01010KT M03/M09 A3002 RMK A01 T10281088  RH  063%=      5-min Rain = 0
KCH1 101350Z 01010KT M03/M09 A3002 RMK A01 T10281087  RH  063%=      5-min Rain = 0
KCH1 101351Z 01009KT M03/M09 A3002 RMK A01 T10271087  RH  063%=      5-min Rain = 0
KCH1 101352Z 01011G16KT M03/M09 A3002 RMK A01 T10281087  RH  063%=      5-min Rain = 0
KCH1 101353Z 02013KT M03/M09 A3002 RMK A01 T10281087  RH  064%=      5-min Rain = 0
KCH1 101354Z 01010KT M03/M09 A3002 RMK A01 T10271087  RH  063%=      5-min Rain = 0
KCH1 101355Z 00011KT M03/M09 A3002 RMK A01 T10271087  RH  063%=      5-min Rain = 0
KCH1 101356Z 00011KT M03/M09 A3002 RMK A01 T10271087  RH  063%=      5-min Rain = 0
KCH1 101357Z 01012KT M03/M09 A3002 RMK A01 T10271087  RH  063%=      5-min Rain = 0
KCH1 101358Z 00012G17KT M03/M09 A3002 RMK A01 T10271087  RH  063%=      5-min Rain = 0
KCH1 101359Z 01010G15KT M03/M09 A3002 RMK A01 T10281087  RH  063%=      5-min Rain = 0
KCH1 101400Z 01009G14KT M03/M09 A3002 RMK A01 T10281088  RH  063%=      5-min Rain = 0
KCH1 101401Z 01008KT M03/M09 A3002 RMK A01 T10271087  RH  063%=      5-min Rain = 0
KCH1 101402Z 01008KT M03/M09 A3002 RMK A01 T10271087  RH  063%=      5-min Rain = 0
KCH1 101403Z 01008KT M03/M09 A3002 RMK A01 T10261087  RH  063%=      5-min Rain = 0
KCH1 101404Z 01007KT M03/M09 A3002 RMK A01 T10271088  RH  063%=      5-min Rain = 0
KCH1 101405Z 36007KT M03/M09 A3002 RMK A01 T10271088  RH  063%=      5-min Rain = 0
KCH1 101406Z 00010KT M03/M09 A3002 RMK A01 T10271088  RH  063%=      5-min Rain = 0
KCH1 101407Z 35011G16KT M03/M09 A3002 RMK A01 T10271088  RH  063%=      5-min Rain = 0
KCH1 101408Z 01014G19KT M03/M09 A3002 RMK A01 T10271088  RH  063%=      5-min Rain = 0
KCH1 101409Z 00011KT M03/M09 A3002 RMK A01 T10271089  RH  063%=      5-min Rain = 0
KCH1 101410Z 00012KT M03/M09 A3002 RMK A01 T10291090  RH  063%=      5-min Rain = 0
KCH1 101411Z 00014KT M03/M09 A3003 RMK A01 T10291089  RH  063%=      5-min Rain = 0
KCH1 101412Z 36013KT M03/M09 A3003 RMK A01 T10291090  RH  063%=      5-min Rain = 0
KCH1 101413Z 36012KT M03/M09 A3003 RMK A01 T10291090  RH  063%=      5-min Rain = 0
KCH1 101414Z 01013G18KT M03/M09 A3003 RMK A01 T10301090  RH  063%=      5-min Rain = 0
KCH1 101415Z 01011KT M03/M09 A3003 RMK A01 T10301090  RH  063%=      5-min Rain = 0
KCH1 101416Z 00013KT M03/M09 A3003 RMK A01 T10301090  RH  063%=      5-min Rain = 0
KCH1 101417Z 36011KT M03/M09 A3003 RMK A01 T10301090  RH  063%=      5-min Rain = 0
KCH1 101418Z 35011KT M03/M09 A3003 RMK A01 T10301090  RH  063%=      5-min Rain = 0
KCH1 101419Z 00010G15KT M03/M09 A3003 RMK A01 T10301090  RH  063%=      5-min Rain = 0
KCH1 101420Z 36010KT M03/M09 A3003 RMK A01 T10301090  RH  064%=      5-min Rain = 0
KCH1 101421Z 01009KT M03/M09 A3003 RMK A01 T10301089  RH  064%=      5-min Rain = 0
KCH1 101422Z 01013KT M03/M09 A3003 RMK A01 T10291088  RH  064%=      5-min Rain = 0
KCH1 101423Z 01013KT M03/M09 A3003 RMK A01 T10291089  RH  064%=      5-min Rain = 0
KCH1 101424Z 00013KT M03/M09 A3003 RMK A01 T10291089  RH  064%=      5-min Rain = 0
KCH1 101425Z 01015KT M03/M09 A3003 RMK A01 T10301089  RH  064%=      5-min Rain = 0
KCH1 101426Z 01014KT M03/M09 A3003 RMK A01 T10311090  RH  064%=      5-min Rain = 0
KCH1 101427Z 01014KT M03/M09 A3003 RMK A01 T10311090  RH  064%=      5-min Rain = 0
KCH1 101428Z 01011KT M03/M09 A3003 RMK A01 T10311090  RH  064%=      5-min Rain = 0
KCH1 101429Z 01012KT M03/M09 A3003 RMK A01 T10311090  RH  064%=      5-min Rain = 0
KCH1 101430Z 01008KT M03/M09 A3003 RMK A01 T10311090  RH  064%=      5-min Rain = 0
KCH1 101431Z 01011KT M03/M09 A3003 RMK A01 T10301090  RH  064%=      5-min Rain = 0
KCH1 101432Z 00010KT M03/M09 A3003 RMK A01 T10291089  RH  063%=      5-min Rain = 0
KCH1 101433Z 36011KT M03/M09 A3003 RMK A01 T10291090  RH  063%=      5-min Rain = 0
KCH1 101434Z 01012KT M03/M09 A3003 RMK A01 T10301090  RH  063%=      5-min Rain = 0
KCH1 101435Z 01013KT M03/M09 A3003 RMK A01 T10301090  RH  063%=      5-min Rain = 0
KCH1 101436Z 02011KT M03/M09 A3003 RMK A01 T10301090  RH  063%=      5-min Rain = 0
KCH1 101437Z 01012KT M03/M09 A3003 RMK A01 T10301090  RH  063%=      5-min Rain = 0
KCH1 101438Z 01009KT M03/M09 A3003 RMK A01 T10301090  RH  063%=      5-min Rain = 0
KCH1 101439Z 36009KT M03/M09 A3003 RMK A01 T10301090  RH  063%=      5-min Rain = 0
KCH1 101440Z 01009KT M03/M09 A3003 RMK A01 T10291089  RH  063%=      5-min Rain = 0
KCH1 101441Z 00007KT M03/M09 A3003 RMK A01 T10291089  RH  063%=      5-min Rain = 0
KCH1 101442Z 01009KT M03/M09 A3003 RMK A01 T10281089  RH  063%=      5-min Rain = 0
KCH1 101443Z 01009KT M03/M09 A3003 RMK A01 T10281089  RH  063%=      5-min Rain = 0
KCH1 101444Z 02007KT M03/M09 A3003 RMK A01 T10281089  RH  063%=      5-min Rain = 0
KCH1 101445Z 01009KT M03/M09 A3003 RMK A01 T10281089  RH  063%=      5-min Rain = 0
KCH1 101446Z 01010KT M03/M09 A3003 RMK A01 T10281090  RH  062%=      5-min Rain = 0
KCH1 101447Z 02008G13KT M03/M09 A3003 RMK A01 T10281090  RH  062%=      5-min Rain = 0
KCH1 101448Z 01006KT M03/M09 A3003 RMK A01 T10281090  RH  063%=      5-min Rain = 0
KCH1 101449Z 35006KT M03/M09 A3003 RMK A01 T10281089  RH  063%=      5-min Rain = 0
KCH1 101450Z 01009KT M03/M09 A3003 RMK A01 T10271087  RH  063%=      5-min Rain = 0
KCH1 101451Z 01008KT M03/M09 A3003 RMK A01 T10271088  RH  063%=      5-min Rain = 0
KCH1 101452Z 00009KT M03/M09 A3003 RMK A01 T10271088  RH  063%=      5-min Rain = 0
KCH1 101453Z 01010KT M03/M09 A3003 RMK A01 T10271088  RH  063%=      5-min Rain = 0
KCH1 101454Z 00009KT M03/M09 A3003 RMK A01 T10281088  RH  063%=      5-min Rain = 0
KCH1 101455Z 01009KT M03/M09 A3003 RMK A01 T10281088  RH  063%=      5-min Rain = 0
KCH1 101456Z 01009KT M03/M09 A3004 RMK A01 T10291088  RH  063%=      5-min Rain = 0
KCH1 101457Z 35009KT M03/M09 A3004 RMK A01 T10281088  RH  063%=      5-min Rain = 0
KCH1 101458Z 36013KT M03/M09 A3004 RMK A01 T10281087  RH  064%=      5-min Rain = 0
KCH1 101459Z 00012KT M03/M09 A3004 RMK A01 T10291089  RH  063%=      5-min Rain = 0
KCH1 101500Z 36011G16KT M03/M09 A3004 RMK A01 T10301090  RH  063%=      5-min Rain = 0
KCH1 101501Z 36012G17KT M03/M09 A3004 RMK A01 T10301089  RH  064%=      5-min Rain = 0
KCH1 101502Z 00011KT M03/M09 A3003 RMK A01 T10301089  RH  063%=      5-min Rain = 0
KCH1 101503Z 01010KT M03/M09 A3004 RMK A01 T10301089  RH  064%=      5-min Rain = 0
KCH1 101504Z 36011KT M03/M09 A3004 RMK A01 T10291088  RH  064%=      5-min Rain = 0
KCH1 101505Z 00010G17KT M03/M09 A3004 RMK A01 T10291088  RH  064%=      5-min Rain = 0
KCH1 101506Z 01013G18KT M03/M09 A3004 RMK A01 T10291088  RH  064%=      5-min Rain = 0
KCH1 101507Z 02010G17KT M03/M09 A3004 RMK A01 T10301088  RH  064%=      5-min Rain = 0
KCH1 101508Z 02013KT M03/M09 A3004 RMK A01 T10301087  RH  065%=      5-min Rain = 0
KCH1 101509Z 03011KT M03/M09 A3004 RMK A01 T10301087  RH  065%=      5-min Rain = 0
KCH1 101510Z 02012KT M03/M09 A3004 RMK A01 T10311087  RH  065%=      5-min Rain = 0
KCH1 101511Z 02009KT M03/M09 A3004 RMK A01 T10311088  RH  065%=      5-min Rain = 0
KCH1 101512Z 02010KT M03/M09 A3004 RMK A01 T10311088  RH  064%=      5-min Rain = 0
KCH1 101513Z 02010KT M03/M09 A3004 RMK A01 T10301089  RH  064%=      5-min Rain = 0
KCH1 101514Z 01008KT M03/M09 A3004 RMK A01 T10311090  RH  064%=      5-min Rain = 0
KCH1 101515Z 01010KT M03/M09 A3004 RMK A01 T10301089  RH  064%=      5-min Rain = 0
KCH1 101516Z 01008KT M03/M09 A3004 RMK A01 T10291088  RH  064%=      5-min Rain = 0
KCH1 101517Z 00008KT M03/M09 A3004 RMK A01 T10291088  RH  064%=      5-min Rain = 0
KCH1 101518Z 02007KT M03/M09 A3004 RMK A01 T10281088  RH  064%=      5-min Rain = 0
KCH1 101519Z 00007KT M03/M09 A3004 RMK A01 T10271087  RH  063%=      5-min Rain = 0
KCH1 101520Z 36010KT M03/M09 A3003 RMK A01 T10271088  RH  063%=      5-min Rain = 0
KCH1 101521Z 01009KT M03/M09 A3003 RMK A01 T10271089  RH  062%=      5-min Rain = 0
KCH1 101522Z 01008KT M03/M09 A3004 RMK A01 T10271089  RH  062%=      5-min Rain = 0
KCH1 101523Z 02007KT M03/M09 A3004 RMK A01 T10261088  RH  062%=      5-min Rain = 0
KCH1 101524Z 01009G14KT M03/M09 A3003 RMK A01 T10271089  RH  062%=      5-min Rain = 0
KCH1 101525Z 01010KT M03/M09 A3003 RMK A01 T10271090  RH  062%=      5-min Rain = 0
KCH1 101526Z 02009G14KT M03/M09 A3003 RMK A01 T10271090  RH  062%=      5-min Rain = 0
KCH1 101527Z 01009KT M03/M09 A3003 RMK A01 T10271089  RH  062%=      5-min Rain = 0
KCH1 101528Z 01013KT M03/M09 A3003 RMK A01 T10281090  RH  062%=      5-min Rain = 0
KCH1 101529Z 02011KT M03/M09 A3003 RMK A01 T10291091  RH  062%=      5-min Rain = 0
KCH1 101530Z 02008KT M03/M09 A3003 RMK A01 T10301091  RH  063%=      5-min Rain = 0
KCH1 101531Z 01009KT M03/M09 A3003 RMK A01 T10291089  RH  063%=      5-min Rain = 0
KCH1 101532Z 02008KT M03/M09 A3003 RMK A01 T10281090  RH  063%=      5-min Rain = 0
KCH1 101533Z 01010G16KT M03/M09 A3003 RMK A01 T10281089  RH  063%=      5-min Rain = 0
KCH1 101534Z 02012KT M03/M09 A3003 RMK A01 T10271088  RH  063%=      5-min Rain = 0
KCH1 101535Z 01012KT M03/M09 A3003 RMK A01 T10281088  RH  063%=      5-min Rain = 0
KCH1 101536Z 02011KT M03/M09 A3003 RMK A01 T10291089  RH  063%=      5-min Rain = 0
KCH1 101537Z 02009KT M03/M09 A3004 RMK A01 T10301090  RH  063%=      5-min Rain = 0
KCH1 101538Z 00008KT M03/M09 A3004 RMK A01 T10301090  RH  064%=      5-min Rain = 0
KCH1 101539Z 35012KT M03/M09 A3004 RMK A01 T10301089  RH  064%=      5-min Rain = 0
KCH1 101540Z 01010KT M03/M09 A3004 RMK A01 T10301089  RH  064%=      5-min Rain = 0
KCH1 101541Z 01011G16KT M03/M09 A3003 RMK A01 T10301088  RH  064%=      5-min Rain = 0
KCH1 101542Z 00008KT M03/M09 A3003 RMK A01 T10301089  RH  064%=      5-min Rain = 0
KCH1 101543Z 00008KT M03/M09 A3003 RMK A01 T10291088  RH  064%=      5-min Rain = 0
KCH1 101544Z 01009KT M03/M09 A3003 RMK A01 T10291087  RH  064%=      5-min Rain = 0
KCH1 101545Z 03011G16KT M03/M09 A3003 RMK A01 T10281086  RH  064%=      5-min Rain = 0
KCH1 101546Z 01010KT M03/M09 A3003 RMK A01 T10271087  RH  064%=      5-min Rain = 0
KCH1 101547Z 02010KT M03/M09 A3003 RMK A01 T10271087  RH  063%=      5-min Rain = 0
KCH1 101548Z 02011KT M03/M09 A3003 RMK A01 T10271087  RH  063%=      5-min Rain = 0
KCH1 101549Z 02012KT M03/M09 A3003 RMK A01 T10271088  RH  063%=      5-min Rain = 0
KCH1 101550Z 02009G14KT M03/M09 A3003 RMK A01 T10281089  RH  063%=      5-min Rain = 0
KCH1 101551Z 01011KT M03/M09 A3003 RMK A01 T10281088  RH  063%=      5-min Rain = 0
KCH1 101552Z 02010KT M03/M09 A3003 RMK A01 T10281089  RH  063%=      5-min Rain = 0
KCH1 101553Z 02009KT M03/M09 A3003 RMK A01 T10281089  RH  063%=      5-min Rain = 0
KCH1 101554Z 01008G13KT M03/M09 A3003 RMK A01 T10271089  RH  062%=      5-min Rain = 0
KCH1 101555Z 02009KT M03/M09 A3003 RMK A01 T10271089  RH  062%=      5-min Rain = 0
KCH1 101556Z 02009KT M03/M09 A3003 RMK A01 T10271088  RH  063%=      5-min Rain = 0
KCH1 101557Z 00006KT M03/M09 A3003 RMK A01 T10271088  RH  063%=      5-min Rain = 0
KCH1 101558Z 00007G12KT M03/M09 A3003 RMK A01 T10261087  RH  063%=      5-min Rain = 0
KCH1 101559Z 00011KT M03/M09 A3003 RMK A01 T10261088  RH  063%=      5-min Rain = 0
KCH1 101600Z 01008KT M03/M09 A3003 RMK A01 T10271089  RH  063%=      5-min Rain = 0
KCH1 101601Z 01011KT M03/M09 A3003 RMK A01 T10281088  RH  063%=      5-min Rain = 0
KCH1 101602Z 01012KT M03/M09 A3003 RMK A01 T10281088  RH  063%=      5-min Rain = 0
KCH1 101603Z 02011KT M03/M09 A3003 RMK A01 T10281088  RH  064%=      5-min Rain = 0
KCH1 101604Z 01011KT M03/M09 A3003 RMK A01 T10291088  RH  064%=      5-min Rain = 0
KCH1 101605Z 01010KT M03/M09 A3003 RMK A01 T10281088  RH  064%=      5-min Rain = 0
KCH1 101606Z 02009KT M03/M09 A3003 RMK A01 T10281087  RH  064%=      5-min Rain = 0
KCH1 101607Z 01011KT M03/M09 A3003 RMK A01 T10271087  RH  063%=      5-min Rain = 0
KCH1 101608Z 02011KT M03/M09 A3003 RMK A01 T10271088  RH  063%=      5-min Rain = 0
KCH1 101609Z 02009G15KT M03/M09 A3003 RMK A01 T10281089  RH  063%=      5-min Rain = 0
KCH1 101610Z 02011KT M03/M09 A3003 RMK A01 T10271087  RH  064%=      5-min Rain = 0
KCH1 101611Z 02008KT M03/M09 A3003 RMK A01 T10261086  RH  063%=      5-min Rain = 0
KCH1 101612Z 01009KT M03/M09 A3003 RMK A01 T10261086  RH  063%=      5-min Rain = 0
KCH1 101613Z 00010KT M03/M09 A3003 RMK A01 T10251087  RH  063%=      5-min Rain = 0
KCH1 101614Z 02009KT M03/M09 A3003 RMK A01 T10251087  RH  062%=      5-min Rain = 0
KCH1 101615Z 01010KT M03/M09 A3003 RMK A01 T10251087  RH  062%=      5-min Rain = 0
KCH1 101616Z 00008KT M03/M09 A3003 RMK A01 T10251087  RH  063%=      5-min Rain = 0
KCH1 101617Z 02007G12KT M03/M09 A3003 RMK A01 T10251086  RH  063%=      5-min Rain = 0
KCH1 101618Z 02009KT M02/M09 A3003 RMK A01 T10241086  RH  063%=      5-min Rain = 0
KCH1 101619Z 00009KT M02/M09 A3003 RMK A01 T10241086  RH  063%=      5-min Rain = 0
KCH1 101620Z 01008KT M03/M09 A3003 RMK A01 T10251086  RH  063%=      5-min Rain = 0
KCH1 101621Z 01005KT M03/M09 A3003 RMK A01 T10251086  RH  063%=      5-min Rain = 0
KCH1 101622Z 02009KT M02/M08 A3003 RMK A01 T10231084  RH  063%=      5-min Rain = 0
KCH1 101623Z 02009KT M02/M08 A3003 RMK A01 T10221084  RH  063%=      5-min Rain = 0
KCH1 101624Z 02009KT M02/M09 A3003 RMK A01 T10221086  RH  062%=      5-min Rain = 0
KCH1 101625Z 01010KT M02/M09 A3003 RMK A01 T10231087  RH  062%=      5-min Rain = 0
KCH1 101626Z 01008KT M02/M09 A3003 RMK A01 T10241087  RH  062%=      5-min Rain = 0
KCH1 101627Z 01009KT M02/M09 A3003 RMK A01 T10241087  RH  062%=      5-min Rain = 0
KCH1 101628Z 00008KT M02/M09 A3003 RMK A01 T10241087  RH  062%=      5-min Rain = 0
KCH1 101629Z 00008KT M02/M09 A3003 RMK A01 T10241087  RH  062%=      5-min Rain = 0
KCH1 101630Z 00009KT M02/M09 A3003 RMK A01 T10231087  RH  062%=      5-min Rain = 0
KCH1 101631Z 01009KT M02/M09 A3003 RMK A01 T10231088  RH  061%=      5-min Rain = 0
KCH1 101632Z 01008KT M02/M09 A3004 RMK A01 T10231088  RH  061%=      5-min Rain = 0
KCH1 101633Z 00009KT M02/M09 A3004 RMK A01 T10221086  RH  061%=      5-min Rain = 0
KCH1 101634Z 35009KT M02/M09 A3004 RMK A01 T10211087  RH  061%=      5-min Rain = 0
KCH1 101635Z 35010KT M02/M09 A3004 RMK A01 T10211087  RH  061%=      5-min Rain = 0
KCH1 101636Z 36009KT M02/M09 A3004 RMK A01 T10221088  RH  061%=      5-min Rain = 0
KCH1 101637Z 35009KT M02/M09 A3004 RMK A01 T10221088  RH  061%=      5-min Rain = 0
KCH1 101638Z 35010KT M02/M09 A3004 RMK A01 T10221088  RH  061%=      5-min Rain = 0
KCH1 101639Z 36009KT M02/M09 A3004 RMK A01 T10221088  RH  060%=      5-min Rain = 0
KCH1 101640Z 35007KT M02/M09 A3004 RMK A01 T10241089  RH  061%=      5-min Rain = 0
KCH1 101641Z 36008KT M02/M09 A3004 RMK A01 T10231087  RH  062%=      5-min Rain = 0
KCH1 101642Z 34009KT M02/M09 A3004 RMK A01 T10231086  RH  062%=      5-min Rain = 0
KCH1 101643Z 34006KT M02/M09 A3004 RMK A01 T10221086  RH  062%=      5-min Rain = 0
KCH1 101644Z 34006KT M02/M09 A3004 RMK A01 T10221086  RH  062%=      5-min Rain = 0
KCH1 101645Z 00005KT M02/M08 A3004 RMK A01 T10211084  RH  062%=      5-min Rain = 0
KCH1 101646Z 36008KT M02/M08 A3004 RMK A01 T10181083  RH  061%=      5-min Rain = 0
KCH1 101647Z 01008KT M02/M09 A3004 RMK A01 T10181085  RH  060%=      5-min Rain = 0
KCH1 101648Z 01009KT M02/M09 A3004 RMK A01 T10181085  RH  060%=      5-min Rain = 0
KCH1 101649Z 01010KT M02/M08 A3004 RMK A01 T10181084  RH  061%=      5-min Rain = 0
KCH1 101650Z 00012KT M02/M08 A3004 RMK A01 T10191084  RH  061%=      5-min Rain = 0
KCH1 101651Z 35010KT M02/M09 A3004 RMK A01 T10211086  RH  061%=      5-min Rain = 0
KCH1 101652Z 35009G14KT M02/M09 A3004 RMK A01 T10221086  RH  062%=      5-min Rain = 0
KCH1 101653Z 01010KT M02/M08 A3004 RMK A01 T10221084  RH  062%=      5-min Rain = 0
KCH1 101654Z 36009KT M02/M08 A3004 RMK A01 T10211083  RH  062%=      5-min Rain = 0
KCH1 101655Z 35009KT M02/M08 A3004 RMK A01 T10211083  RH  062%=      5-min Rain = 0
KCH1 101656Z 35009KT M02/M08 A3004 RMK A01 T10211082  RH  063%=      5-min Rain = 0
KCH1 101657Z 35006KT M02/M08 A3004 RMK A01 T10211082  RH  063%=      5-min Rain = 0
KCH1 101658Z 01005KT M02/M08 A3004 RMK A01 T10191081  RH  062%=      5-min Rain = 0
KCH1 101659Z 01007KT M02/M08 A3004 RMK A01 T10171082  RH  062%=      5-min Rain = 0
KCH1 101700Z 36010KT M02/M08 A3004 RMK A01 T10171083  RH  061%=      5-min Rain = 0
KCH1 101701Z 36009KT M02/M08 A3004 RMK A01 T10181084  RH  060%=      5-min Rain = 0
KCH1 101702Z 36009KT M02/M09 A3004 RMK A01 T10181085  RH  060%=      5-min Rain = 0
KCH1 101703Z 35008KT M02/M09 A3004 RMK A01 T10211087  RH  061%=      5-min Rain = 0
KCH1 101704Z 36009KT M02/M09 A3004 RMK A01 T10211086  RH  061%=      5-min Rain = 0
KCH1 101705Z 36007KT M02/M09 A3004 RMK A01 T10221085  RH  062%=      5-min Rain = 0
KCH1 101706Z 36005KT M02/M09 A3004 RMK A01 T10211085  RH  062%=      5-min Rain = 0
KCH1 101707Z 34008KT M02/M08 A3004 RMK A01 T10201083  RH  062%=      5-min Rain = 0
KCH1 101708Z 35008KT M02/M08 A3004 RMK A01 T10181082  RH  062%=      5-min Rain = 0
KCH1 101709Z 35007KT M02/M08 A3004 RMK A01 T10181083  RH  061%=      5-min Rain = 0
KCH1 101710Z 36009KT M02/M08 A3004 RMK A01 T10171083  RH  061%=      5-min Rain = 0
KCH1 101711Z 36007KT M02/M08 A3004 RMK A01 T10191084  RH  061%=      5-min Rain = 0
KCH1 101712Z 36006KT M02/M08 A3004 RMK A01 T10181083  RH  061%=      5-min Rain = 0
KCH1 101713Z 35006KT M02/M08 A3004 RMK A01 T10161080  RH  062%=      5-min Rain = 0
KCH1 101714Z 34009KT M02/M08 A3004 RMK A01 T10151080  RH  062%=      5-min Rain = 0
KCH1 101715Z 34008KT M02/M08 A3004 RMK A01 T10151081  RH  061%=      5-min Rain = 0
KCH1 101716Z 01005KT M02/M08 A3004 RMK A01 T10171083  RH  061%=      5-min Rain = 0
KCH1 101717Z 02005KT M02/M08 A3004 RMK A01 T10161082  RH  061%=      5-min Rain = 0
KCH1 101718Z 35008KT M02/M08 A3004 RMK A01 T10151081  RH  061%=      5-min Rain = 0
KCH1 101719Z 35007KT M02/M08 A3004 RMK A01 T10151081  RH  060%=      5-min Rain = 0
KCH1 101720Z 36006KT M02/M08 A3004 RMK A01 T10151082  RH  060%=      5-min Rain = 0
KCH1 101721Z 35009KT M02/M08 A3004 RMK A01 T10151082  RH  060%=      5-min Rain = 0
KCH1 101722Z 01007KT M02/M08 A3004 RMK A01 T10151082  RH  060%=      5-min Rain = 0
KCH1 101723Z 02008KT M01/M08 A3004 RMK A01 T10141079  RH  061%=      5-min Rain = 0
KCH1 101724Z 03008G13KT M01/M08 A3004 RMK A01 T10131077  RH  061%=      5-min Rain = 0
KCH1 101725Z 02008KT M01/M08 A3004 RMK A01 T10101075  RH  062%=      5-min Rain = 0
KCH1 101726Z 03005KT M01/M08 A3004 RMK A01 T10101077  RH  060%=      5-min Rain = 0
KCH1 101727Z 02005KT M01/M08 A3004 RMK A01 T10091075  RH  061%=      5-min Rain = 0
KCH1 101728Z 02007KT M01/M08 A3004 RMK A01 T10071076  RH  060%=      5-min Rain = 0
KCH1 101729Z 03006KT M01/M08 A3004 RMK A01 T10081077  RH  060%=      5-min Rain = 0
KCH1 101730Z 04009KT M01/M08 A3004 RMK A01 T10091076  RH  060%=      5-min Rain = 0
KCH1 101731Z 03008KT M01/M08 A3004 RMK A01 T10101077  RH  061%=      5-min Rain = 0
KCH1 101732Z 02009KT M01/M08 A3004 RMK A01 T10111077  RH  061%=      5-min Rain = 0
KCH1 101733Z 03007KT M01/M08 A3004 RMK A01 T10131077  RH  061%=      5-min Rain = 0
KCH1 101734Z 02006KT M01/M08 A3004 RMK A01 T10131076  RH  062%=      5-min Rain = 0
KCH1 101735Z 03009KT M01/M07 A3004 RMK A01 T10111074  RH  062%=      5-min Rain = 0
KCH1 101736Z 03006KT M01/M07 A3004 RMK A01 T10111074  RH  063%=      5-min Rain = 0
KCH1 101737Z 03004KT M01/M08 A3004 RMK A01 T10121075  RH  062%=      5-min Rain = 0
KCH1 101738Z 03008KT M01/M08 A3004 RMK A01 T10121076  RH  062%=      5-min Rain = 0
KCH1 101739Z 01007KT M01/M08 A3004 RMK A01 T10121077  RH  061%=      5-min Rain = 0
KCH1 101740Z 36005KT M01/M08 A3004 RMK A01 T10121076  RH  062%=      5-min Rain = 0
KCH1 101741Z 36006KT M01/M08 A3004 RMK A01 T10121075  RH  062%=      5-min Rain = 0
KCH1 101742Z 34008KT M01/M08 A3004 RMK A01 T10121076  RH  062%=      5-min Rain = 0
KCH1 101743Z 33008KT M01/M08 A3004 RMK A01 T10121076  RH  061%=      5-min Rain = 0
KCH1 101744Z 34006KT M01/M08 A3004 RMK A01 T10141078  RH  062%=      5-min Rain = 0
KCH1 101745Z 02003KT M01/M08 A3004 RMK A01 T10131076  RH  063%=      5-min Rain = 0
KCH1 101746Z 03002KT M01/M07 A3003 RMK A01 T10111073  RH  063%=      5-min Rain = 0
KCH1 101747Z 03003KT M01/M07 A3003 RMK A01 T10071071  RH  062%=      5-min Rain = 0
KCH1 101748Z 01005KT M00/M07 A3003 RMK A01 T10041073  RH  060%=      5-min Rain = 0
KCH1 101749Z 02004KT M01/M08 A3003 RMK A01 T10051077  RH  058%=      5-min Rain = 0
KCH1 101750Z 03006KT M01/M08 A3003 RMK A01 T10051076  RH  059%=      5-min Rain = 0
KCH1 101751Z 04008KT M00/M07 A3003 RMK A01 T10041073  RH  060%=      5-min Rain = 0
KCH1 101752Z 04007KT M00/M07 A3003 RMK A01 T10041074  RH  059%=      5-min Rain = 0
KCH1 101753Z 04007KT M01/M08 A3003 RMK A01 T10061076  RH  059%=      5-min Rain = 0
KCH1 101754Z 04007KT M01/M08 A3003 RMK A01 T10081077  RH  059%=      5-min Rain = 0
KCH1 101755Z 03004KT M01/M08 A3003 RMK A01 T10081077  RH  059%=      5-min Rain = 0
KCH1 101756Z 03006KT M01/M08 A3003 RMK A01 T10081075  RH  060%=      5-min Rain = 0
KCH1 101757Z 04010KT M00/M07 A3003 RMK A01 T10041072  RH  060%=      5-min Rain = 0
KCH1 101758Z 04010KT M01/M07 A3003 RMK A01 T10051074  RH  059%=      5-min Rain = 0
KCH1 101759Z 04011KT M01/M08 A3003 RMK A01 T10071077  RH  059%=      5-min Rain = 0
KCH1 101800Z 03011KT M01/M08 A3003 RMK A01 T10071076  RH  060%=      5-min Rain = 0
KCH1 101801Z 02006KT M01/M07 A3003 RMK A01 T10081074  RH  061%=      5-min Rain = 0
KCH1 101802Z 03006KT M01/M07 A3003 RMK A01 T10071071  RH  062%=      5-min Rain = 0
KCH1 101803Z 02006KT M01/M07 A3003 RMK A01 T10051070  RH  062%=      5-min Rain = 0
KCH1 101804Z 02007KT M00/M07 A3003 RMK A01 T10041068  RH  062%=      5-min Rain = 0
KCH1 101805Z 03006KT M01/M07 A3003 RMK A01 T10061067  RH  063%=      5-min Rain = 0
KCH1 101806Z 03006KT M01/M07 A3003 RMK A01 T10061066  RH  064%=      5-min Rain = 0
KCH1 101807Z 03008KT M01/M07 A3003 RMK A01 T10061069  RH  062%=      5-min Rain = 0
KCH1 101808Z 36007KT M01/M07 A3003 RMK A01 T10071071  RH  062%=      5-min Rain = 0
KCH1 101809Z 02005KT M01/M07 A3003 RMK A01 T10071072  RH  061%=      5-min Rain = 0
KCH1 101810Z 01006KT M01/M07 A3003 RMK A01 T10071072  RH  062%=      5-min Rain = 0
KCH1 101811Z 01005KT M01/M07 A3003 RMK A01 T10091072  RH  062%=      5-min Rain = 0
KCH1 101812Z 00005KT M01/M07 A3003 RMK A01 T10111074  RH  063%=      5-min Rain = 0
KCH1 101813Z 34008KT M01/M07 A3003 RMK A01 T10111072  RH  063%=      5-min Rain = 0
KCH1 101814Z 33007KT M01/M07 A3003 RMK A01 T10101070  RH  064%=      5-min Rain = 0
KCH1 101815Z 34006KT M01/M07 A3002 RMK A01 T10091070  RH  063%=      5-min Rain = 0
KCH1 101816Z 36004KT M01/M07 A3003 RMK A01 T10071068  RH  063%=      5-min Rain = 0
KCH1 101817Z 01005KT M00/M07 A3003 RMK A01 T10041067  RH  062%=      5-min Rain = 0
KCH1 101818Z 01007KT M00/M07 A3003 RMK A01 T10031069  RH  061%=      5-min Rain = 0
KCH1 101819Z 01006KT M00/M07 A3002 RMK A01 T10041070  RH  061%=      5-min Rain = 0
KCH1 101820Z 02008KT M01/M07 A3002 RMK A01 T10051069  RH  062%=      5-min Rain = 0
KCH1 101821Z 03008KT M01/M07 A3002 RMK A01 T10051069  RH  062%=      5-min Rain = 0
KCH1 101822Z 03008KT M01/M07 A3002 RMK A01 T10051068  RH  062%=      5-min Rain = 0
KCH1 101823Z 03008KT M01/M07 A3002 RMK A01 T10051066  RH  063%=      5-min Rain = 0
KCH1 101824Z 03007KT M00/M07 A3002 RMK A01 T10041066  RH  063%=      5-min Rain = 0
KCH1 101825Z 02008KT M00/M07 A3002 RMK A01 T10041066  RH  063%=      5-min Rain = 0
KCH1 101826Z 01007KT M00/M07 A3002 RMK A01 T10041068  RH  062%=      5-min Rain = 0
KCH1 101827Z 01005KT M01/M07 A3002 RMK A01 T10061069  RH  062%=      5-min Rain = 0
KCH1 101828Z 00003G9KT M01/M07 A3002 RMK A01 T10061069  RH  062%=      5-min Rain = 0
KCH1 101829Z 01006KT M01/M07 A3002 RMK A01 T10061070  RH  062%=      5-min Rain = 0
KCH1 101830Z 00005KT M01/M07 A3001 RMK A01 T10071074  RH  061%=      5-min Rain = 0
KCH1 101831Z 03003KT M01/M07 A3001 RMK A01 T10071073  RH  061%=      5-min Rain = 0
KCH1 101832Z 04005KT M00/M07 A3001 RMK A01 T10021069  RH  061%=      5-min Rain = 0
KCH1 101833Z 04006KT 00/07 A3001 RMK A01 T00000-71  RH  059%=      5-min Rain = 0
KCH1 101834Z 04005KT M00/M07 A3001 RMK A01 T10021073  RH  059%=      5-min Rain = 0
KCH1 101835Z 05004KT M00/M07 A3001 RMK A01 T10011072  RH  059%=      5-min Rain = 0
KCH1 101836Z 04003KT 00/07 A3001 RMK A01 T00-00-71  RH  059%=      5-min Rain = 0
KCH1 101837Z 04005KT 00/M07 A3001 RMK A01 T00021071  RH  058%=      5-min Rain = 0
KCH1 101838Z 04007KT 01/M07 A3001 RMK A01 T00051069  RH  058%=      5-min Rain = 0
KCH1 101839Z 02009KT 00/M07 A3001 RMK A01 T00041071  RH  057%=      5-min Rain = 0
KCH1 101840Z 02006KT 01/M07 A3001 RMK A01 T00051071  RH  057%=      5-min Rain = 0
KCH1 101841Z 03004KT 01/M07 A3001 RMK A01 T00051072  RH  056%=      5-min Rain = 0
KCH1 101842Z 03004KT 00/M07 A3001 RMK A01 T00031074  RH  056%=      5-min Rain = 0
KCH1 101843Z 05004KT 00/M07 A3001 RMK A01 T00041073  RH  056%=      5-min Rain = 0
KCH1 101844Z 01006KT 00/M07 A3001 RMK A01 T00031073  RH  056%=      5-min Rain = 0
KCH1 101845Z 01007KT 00/M07 A3001 RMK A01 T00031072  RH  057%=      5-min Rain = 0
KCH1 101846Z 34009KT 00/M07 A3001 RMK A01 T00021071  RH  058%=      5-min Rain = 0
KCH1 101847Z 01007KT 00/M07 A30 RMK A01 T00041069  RH  058%=      5-min Rain = 0
KCH1 101848Z 01007KT 01/M07 A3001 RMK A01 T00061069  RH  057%=      5-min Rain = 0
KCH1 101849Z 35006KT 01/M07 A3001 RMK A01 T00081070  RH  056%=      5-min Rain = 0
KCH1 101850Z 35006KT 01/M07 A3001 RMK A01 T00081072  RH  055%=      5-min Rain = 0
KCH1 101851Z 35004KT 01/M07 A30 RMK A01 T00071073  RH  055%=      5-min Rain = 0
KCH1 101852Z 35005KT 01/M07 A30 RMK A01 T00051074  RH  055%=      5-min Rain = 0
KCH1 101853Z 01002KT 01/M07 A30 RMK A01 T00051072  RH  056%=      5-min Rain = 0
KCH1 101854Z 01005KT 01/M07 A30 RMK A01 T00061071  RH  056%=      5-min Rain = 0
KCH1 101855Z 00004KT 01/M07 A30 RMK A01 T00071070  RH  056%=      5-min Rain = 0
KCH1 101856Z 35004KT 01/M07 A30 RMK A01 T00061072  RH  056%=      5-min Rain = 0
KCH1 101857Z 00009KT 01/M07 A30 RMK A01 T00051071  RH  057%=      5-min Rain = 0
KCH1 101858Z 00009KT 00/M07 A30 RMK A01 T00041068  RH  058%=      5-min Rain = 0
KCH1 101859Z 35006KT 00/M07 A30 RMK A01 T00021068  RH  059%=      5-min Rain = 0
KCH1 101900Z 35004KT 00/M07 A30 RMK A01 T00011068  RH  060%=      5-min Rain = 0
KCH1 101901Z 01006KT 00/07 A30 RMK A01 T00000-66  RH  061%=      5-min Rain = 0
KCH1 101902Z 01007KT 00/M06 A30 RMK A01 T00041062  RH  061%=      5-min Rain = 0
KCH1 101903Z 01005KT 01/M07 A30 RMK A01 T00051065  RH  060%=      5-min Rain = 0
KCH1 101904Z 36008KT 00/M07 A30 RMK A01 T00041066  RH  059%=      5-min Rain = 0
KCH1 101905Z 35005KT 00/M07 A30 RMK A01 T00041067  RH  059%=      5-min Rain = 0
KCH1 101906Z 35003KT 00/M07 A2999 RMK A01 T00021068  RH  059%=      5-min Rain = 0
KCH1 101907Z 01004KT 00/07 A2999 RMK A01 T00000-70  RH  059%=      5-min Rain = 0
KCH1 101908Z 00004KT 00/M07 A2999 RMK A01 T00011067  RH  060%=      5-min Rain = 0
KCH1 101909Z 01004KT 00/M07 A2999 RMK A01 T00041067  RH  059%=      5-min Rain = 0
KCH1 101910Z 36005KT 00/M07 A2999 RMK A01 T00041068  RH  058%=      5-min Rain = 0
KCH1 101911Z 34004KT 00/M07 A2999 RMK A01 T00041069  RH  058%=      5-min Rain = 0
KCH1 101912Z 33005KT 00/M07 A2999 RMK A01 T00041068  RH  058%=      5-min Rain = 0
KCH1 101913Z 34004KT 00/M07 A2999 RMK A01 T00031067  RH  059%=      5-min Rain = 0
KCH1 101914Z 01007KT 00/M07 A2999 RMK A01 T00041066  RH  060%=      5-min Rain = 0
KCH1 101915Z 01009KT 01/M07 A2999 RMK A01 T00051066  RH  059%=      5-min Rain = 0
KCH1 101916Z 01005KT 01/M07 A2999 RMK A01 T00061068  RH  058%=      5-min Rain = 0
KCH1 101917Z 01005KT 01/M07 A2999 RMK A01 T00061068  RH  058%=      5-min Rain = 0
KCH1 101918Z 01007KT 01/M07 A2999 RMK A01 T00061067  RH  058%=      5-min Rain = 0
KCH1 101919Z 02004KT 01/M07 A2999 RMK A01 T00071067  RH  058%=      5-min Rain = 0
KCH1 101920Z 35003KT 01/M07 A2999 RMK A01 T00061067  RH  058%=      5-min Rain = 0
KCH1 101921Z 33003KT 00/M07 A2998 RMK A01 T00041068  RH  058%=      5-min Rain = 0
KCH1 101922Z 34004KT 00/M07 A2998 RMK A01 T00031068  RH  059%=      5-min Rain = 0
KCH1 101923Z 34007KT 00/M07 A2998 RMK A01 T00041067  RH  059%=      5-min Rain = 0
KCH1 101924Z 33008KT 01/M06 A2998 RMK A01 T00071064  RH  059%=      5-min Rain = 0
KCH1 101925Z 35006KT 01/M07 A2998 RMK A01 T00061066  RH  058%=      5-min Rain = 0
KCH1 101926Z 35006KT 01/M07 A2998 RMK A01 T00051066  RH  059%=      5-min Rain = 0
KCH1 101927Z 00007KT 01/M07 A2998 RMK A01 T00071065  RH  059%=      5-min Rain = 0
KCH1 101928Z 01004KT 01/M07 A2998 RMK A01 T00071065  RH  059%=      5-min Rain = 0
KCH1 101929Z 00006G11KT 01/M06 A2998 RMK A01 T00071064  RH  059%=      5-min Rain = 0
KCH1 101930Z 02006KT 01/M07 A2998 RMK A01 T00081065  RH  058%=      5-min Rain = 0
KCH1 101931Z 04006KT 01/M06 A2998 RMK A01 T00081064  RH  058%=      5-min Rain = 0
KCH1 101932Z 00006KT 01/M06 A2998 RMK A01 T00091064  RH  058%=      5-min Rain = 0
KCH1 101933Z 34007KT 01/M06 A2997 RMK A01 T00111060  RH  059%=      5-min Rain = 0
KCH1 101934Z 04007KT 01/M06 A2997 RMK A01 T00131060  RH  058%=      5-min Rain = 0
KCH1 101935Z 04006KT 01/M06 A2997 RMK A01 T00131064  RH  056%=      5-min Rain = 0
KCH1 101936Z 05004KT 01/M07 A2997 RMK A01 T00121066  RH  056%=      5-min Rain = 0
KCH1 101937Z 04004KT 01/M07 A2997 RMK A01 T00121067  RH  056%=      5-min Rain = 0
KCH1 101938Z 00006KT 01/M07 A2997 RMK A01 T00101067  RH  056%=      5-min Rain = 0
KCH1 101939Z 36006KT 01/M07 A2997 RMK A01 T00101066  RH  057%=      5-min Rain = 0
KCH1 101940Z 01005KT 01/M07 A2997 RMK A01 T00101067  RH  057%=      5-min Rain = 0
KCH1 101941Z 36004KT 01/M07 A2996 RMK A01 T00101066  RH  057%=      5-min Rain = 0
KCH1 101942Z 34005KT 01/M07 A2996 RMK A01 T00101066  RH  057%=      5-min Rain = 0
KCH1 101943Z 02003KT 01/M07 A2996 RMK A01 T00101067  RH  057%=      5-min Rain = 0
KCH1 101944Z 04002KT 01/M07 A2996 RMK A01 T00111066  RH  056%=      5-min Rain = 0
KCH1 101945Z 04004KT 01/M07 A2996 RMK A01 T00111065  RH  057%=      5-min Rain = 0
KCH1 101946Z 04005KT 01/M06 A2996 RMK A01 T00131064  RH  057%=      5-min Rain = 0
KCH1 101947Z 05005KT 01/M07 A2996 RMK A01 T00141066  RH  056%=      5-min Rain = 0
KCH1 101948Z 02008KT 01/M07 A2996 RMK A01 T00131065  RH  056%=      5-min Rain = 0
KCH1 101949Z 01007KT 01/M06 A2996 RMK A01 T00141064  RH  056%=      5-min Rain = 0
KCH1 101950Z 35007KT 01/M06 A2996 RMK A01 T00131064  RH  056%=      5-min Rain = 0
KCH1 101951Z 33005KT 01/M06 A2996 RMK A01 T00121064  RH  057%=      5-min Rain = 0
KCH1 101952Z 34002KT 01/M06 A2996 RMK A01 T00101064  RH  058%=      5-min Rain = 0
KCH1 101953Z 36003KT 01/M06 A2995 RMK A01 T00121061  RH  058%=      5-min Rain = 0
KCH1 101954Z 06003KT 02/M06 A2995 RMK A01 T00151059  RH  058%=      5-min Rain = 0
KCH1 101955Z 00004KT 02/M06 A2995 RMK A01 T00171061  RH  056%=      5-min Rain = 0
KCH1 101956Z 02006KT 02/M06 A2995 RMK A01 T00181061  RH  056%=      5-min Rain = 0
KCH1 101957Z 02008KT 02/M06 A2995 RMK A01 T00181062  RH  055%=      5-min Rain = 0
KCH1 101958Z 02006KT 02/M06 A2995 RMK A01 T00171064  RH  055%=      5-min Rain = 0
KCH1 101959Z 01004KT 02/M07 A2995 RMK A01 T00151065  RH  055%=      5-min Rain = 0
KCH1 102000Z 02005KT 01/M07 A2995 RMK A01 T00141065  RH  056%=      5-min Rain = 0
KCH1 102001Z 03003KT 01/M07 A2995 RMK A01 T00131066  RH  056%=      5-min Rain = 0
KCH1 102002Z 01004KT 01/M06 A2994 RMK A01 T00131064  RH  056%=      5-min Rain = 0
KCH1 102003Z 05004KT 02/M06 A2994 RMK A01 T00151064  RH  056%=      5-min Rain = 0
KCH1 102004Z 06004KT 02/M06 A2994 RMK A01 T00161064  RH  055%=      5-min Rain = 0
KCH1 102005Z 06004KT 02/M06 A2994 RMK A01 T00161064  RH  055%=      5-min Rain = 0
KCH1 102006Z 01004KT 02/M06 A2994 RMK A01 T00161063  RH  056%=      5-min Rain = 0
KCH1 102007Z 35002KT 02/M06 A2994 RMK A01 T00161063  RH  056%=      5-min Rain = 0
KCH1 102008Z 02004G9KT 02/M06 A2994 RMK A01 T00171062  RH  056%=      5-min Rain = 0
KCH1 102009Z 02006KT 02/M06 A2994 RMK A01 T00181061  RH  056%=      5-min Rain = 0
KCH1 102010Z 03005KT 02/M06 A2994 RMK A01 T00201060  RH  056%=      5-min Rain = 0
KCH1 102011Z 06004KT 02/M06 A2994 RMK A01 T00191062  RH  055%=      5-min Rain = 0
KCH1 102012Z 02004KT 02/M06 A2994 RMK A01 T00161063  RH  056%=      5-min Rain = 0
KCH1 102013Z 00004KT 02/M06 A2994 RMK A01 T00161062  RH  056%=      5-min Rain = 0
KCH1 102014Z 04003KT 02/M06 A2993 RMK A01 T00161062  RH  056%=      5-min Rain = 0
KCH1 102015Z 04002KT 02/M06 A2993 RMK A01 T00161061  RH  056%=      5-min Rain = 0
KCH1 102016Z 02003KT 02/M06 A2993 RMK A01 T00171060  RH  056%=      5-min Rain = 0
KCH1 102017Z 31007KT 02/M06 A2993 RMK A01 T00191060  RH  056%=      5-min Rain = 0
KCH1 102018Z 02005KT 02/M06 A2993 RMK A01 T00191061  RH  056%=      5-min Rain = 0
KCH1 102019Z 01006KT 02/M06 A2993 RMK A01 T00201061  RH  055%=      5-min Rain = 0
KCH1 102020Z 02005KT 02/M06 A2993 RMK A01 T00221061  RH  054%=      5-min Rain = 0
KCH1 102021Z 05003KT 02/M06 A2993 RMK A01 T00231062  RH  053%=      5-min Rain = 0
KCH1 102022Z 35003KT 02/M06 A2993 RMK A01 T00211062  RH  054%=      5-min Rain = 0
KCH1 102023Z 04005KT 02/M06 A2994 RMK A01 T00211060  RH  055%=      5-min Rain = 0
KCH1 102024Z 01004KT 02/M06 A2994 RMK A01 T00221062  RH  054%=      5-min Rain = 0
KCH1 102025Z 00006KT 02/M06 A2994 RMK A01 T00211063  RH  054%=      5-min Rain = 0
KCH1 102026Z 01005KT 02/M06 A2994 RMK A01 T00221063  RH  054%=      5-min Rain = 0
KCH1 102027Z 00005KT 02/M06 A2994 RMK A01 T00221063  RH  053%=      5-min Rain = 0
KCH1 102028Z 35006KT 02/M06 A2994 RMK A01 T00211063  RH  054%=      5-min Rain = 0
KCH1 102029Z 35003KT 02/M06 A2994 RMK A01 T00201062  RH  054%=      5-min Rain = 0
KCH1 102030Z 00006KT 02/M06 A2994 RMK A01 T00221061  RH  054%=      5-min Rain = 0
KCH1 102031Z 02005KT 02/M06 A2993 RMK A01 T00231062  RH  053%=      5-min Rain = 0
KCH1 102032Z 01002KT 02/M06 A2993 RMK A01 T00241061  RH  053%=      5-min Rain = 0
KCH1 102033Z 00006KT 03/M06 A2993 RMK A01 T00251062  RH  053%=      5-min Rain = 0
KCH1 102034Z 00007KT 03/M06 A2993 RMK A01 T00251062  RH  053%=      5-min Rain = 0
KCH1 102035Z 00006KT 03/M06 A2994 RMK A01 T00261061  RH  053%=      5-min Rain = 0
KCH1 102036Z 00006KT 03/M06 A2994 RMK A01 T00251062  RH  053%=      5-min Rain = 0
KCH1 102037Z 01006KT 02/M06 A2994 RMK A01 T00231062  RH  053%=      5-min Rain = 0
KCH1 102038Z 35006KT 02/M06 A2993 RMK A01 T00231061  RH  054%=      5-min Rain = 0
KCH1 102039Z 00005KT 02/M06 A2993 RMK A01 T00221060  RH  055%=      5-min Rain = 0
KCH1 102040Z 36005KT 02/M06 A2993 RMK A01 T00211059  RH  055%=      5-min Rain = 0
KCH1 102041Z 01005KT 02/M06 A2993 RMK A01 T00221057  RH  056%=      5-min Rain = 0
KCH1 102042Z 01005KT 02/M06 A2993 RMK A01 T00211058  RH  056%=      5-min Rain = 0
KCH1 102043Z 01004KT 02/M06 A2993 RMK A01 T00201057  RH  057%=      5-min Rain = 0
KCH1 102044Z 36006KT 02/M05 A2993 RMK A01 T00241054  RH  056%=      5-min Rain = 0
KCH1 102045Z 34005KT 02/M06 A2993 RMK A01 T00231058  RH  055%=      5-min Rain = 0
KCH1 102046Z 33003KT 02/M06 A2993 RMK A01 T00201059  RH  056%=      5-min Rain = 0
KCH1 102047Z 33001KT 02/M06 A2993 RMK A01 T00191057  RH  057%=      5-min Rain = 0
KCH1 102048Z 35004KT 02/M06 A2993 RMK A01 T00201056  RH  057%=      5-min Rain = 0
KCH1 102049Z 33004KT 02/M06 A2993 RMK A01 T00221057  RH  056%=      5-min Rain = 0
KCH1 102050Z 34003KT 02/M06 A2993 RMK A01 T00231057  RH  056%=      5-min Rain = 0
KCH1 102051Z 34003KT 02/M06 A2993 RMK A01 T00241056  RH  055%=      5-min Rain = 0
KCH1 102052Z 03004KT 03/M06 A2993 RMK A01 T00261056  RH  055%=      5-min Rain = 0
KCH1 102053Z 01004KT 03/M06 A2993 RMK A01 T00271057  RH  054%=      5-min Rain = 0
KCH1 102054Z 34004KT 03/M06 A2993 RMK A01 T00271059  RH  053%=      5-min Rain = 0
KCH1 102055Z 33005KT 03/M06 A2993 RMK A01 T00261058  RH  054%=      5-min Rain = 0
KCH1 102056Z 33005KT 02/M06 A2993 RMK A01 T00241057  RH  055%=      5-min Rain = 0
KCH1 102057Z 36003KT 03/M06 A2993 RMK A01 T00251056  RH  055%=      5-min Rain = 0
KCH1 102058Z 02003KT 03/M05 A2993 RMK A01 T00291054  RH  054%=      5-min Rain = 0
KCH1 102059Z 03005KT 03/M06 A2993 RMK A01 T00311056  RH  053%=      5-min Rain = 0
KCH1 102100Z 03003KT 03/M06 A2993 RMK A01 T00321058  RH  052%=      5-min Rain = 0
KCH1 102101Z 04001KT 03/M06 A2992 RMK A01 T00301061  RH  051%=      5-min Rain = 0
KCH1 102102Z 02004KT 03/M06 A2992 RMK A01 T00291060  RH  052%=      5-min Rain = 0
KCH1 102103Z 02006KT 03/M06 A2992 RMK A01 T00301059  RH  052%=      5-min Rain = 0
KCH1 102104Z 05004KT 03/M06 A2993 RMK A01 T00301060  RH  052%=      5-min Rain = 0
KCH1 102105Z 09001KT 03/M06 A2992 RMK A01 T00301059  RH  052%=      5-min Rain = 0
KCH1 102106Z 08001KT 03/M06 A2993 RMK A01 T00301058  RH  053%=      5-min Rain = 0
KCH1 102107Z 33001KT 03/M06 A2993 RMK A01 T00301058  RH  053%=      5-min Rain = 0
KCH1 102108Z 34004KT 03/M06 A2992 RMK A01 T00291058  RH  053%=      5-min Rain = 0
KCH1 102109Z 00004KT 03/M06 A2992 RMK A01 T00281055  RH  054%=      5-min Rain = 0
KCH1 102110Z 01004KT 03/M06 A2992 RMK A01 T00301056  RH  053%=      5-min Rain = 0
KCH1 102111Z 00004KT 03/M06 A2992 RMK A01 T00301057  RH  053%=      5-min Rain = 0
KCH1 102112Z 07004KT 03/M06 A2992 RMK A01 T00301057  RH  053%=      5-min Rain = 0
KCH1 102113Z 04004KT 03/M06 A2992 RMK A01 T00321057  RH  052%=      5-min Rain = 0
KCH1 102114Z 02004KT 03/M06 A2992 RMK A01 T00321058  RH  052%=      5-min Rain = 0
KCH1 102115Z 02004KT 03/M06 A2992 RMK A01 T00321058  RH  052%=      5-min Rain = 0
KCH1 102116Z 02004KT 03/M06 A2992 RMK A01 T00321057  RH  052%=      5-min Rain = 0
KCH1 102117Z 01006KT 03/M06 A2992 RMK A01 T00341056  RH  052%=      5-min Rain = 0
KCH1 102118Z 02007KT 03/M06 A2992 RMK A01 T00341058  RH  051%=      5-min Rain = 0
KCH1 102119Z 02003KT 03/M06 A2992 RMK A01 T00321059  RH  051%=      5-min Rain = 0
KCH1 102120Z 35006KT 03/M06 A2992 RMK A01 T00321058  RH  052%=      5-min Rain = 0
KCH1 102121Z 34005KT 03/M06 A2992 RMK A01 T00321057  RH  052%=      5-min Rain = 0
KCH1 102122Z 32004KT 03/M06 A2992 RMK A01 T00301057  RH  052%=      5-min Rain = 0
KCH1 102123Z 32005KT 03/M06 A2992 RMK A01 T00291057  RH  053%=      5-min Rain = 0
KCH1 102124Z 35005KT 03/M06 A2992 RMK A01 T00291056  RH  054%=      5-min Rain = 0
KCH1 102125Z 33004KT 03/M06 A2992 RMK A01 T00301055  RH  054%=      5-min Rain = 0
KCH1 102126Z 31004KT 03/M06 A2992 RMK A01 T00301055  RH  054%=      5-min Rain = 0
KCH1 102127Z 34004KT 03/M06 A2992 RMK A01 T00281057  RH  054%=      5-min Rain = 0
KCH1 102128Z 02004KT 03/M05 A2992 RMK A01 T00291054  RH  054%=      5-min Rain = 0
KCH1 102129Z 36003KT 03/M05 A2992 RMK A01 T00321054  RH  053%=      5-min Rain = 0
KCH1 102130Z 36003KT 03/M06 A2992 RMK A01 T00301056  RH  053%=      5-min Rain = 0
KCH1 102131Z 35003KT 03/M06 A2992 RMK A01 T00281058  RH  053%=      5-min Rain = 0
KCH1 102132Z 34004KT 03/M06 A2992 RMK A01 T00271058  RH  054%=      5-min Rain = 0
KCH1 102133Z 00003KT 03/M06 A2992 RMK A01 T00271057  RH  054%=      5-min Rain = 0
KCH1 102134Z 05004KT 03/M06 A2992 RMK A01 T00291055  RH  054%=      5-min Rain = 0
KCH1 102135Z 02003KT 03/M06 A2992 RMK A01 T00291055  RH  054%=      5-min Rain = 0
KCH1 102136Z 02005KT 03/M05 A2992 RMK A01 T00301054  RH  054%=      5-min Rain = 0
KCH1 102137Z 02004KT 03/M05 A2992 RMK A01 T00311053  RH  054%=      5-min Rain = 0
KCH1 102138Z 03004KT 03/M05 A2992 RMK A01 T00311054  RH  054%=      5-min Rain = 0
KCH1 102139Z 03003KT 03/M05 A2992 RMK A01 T00321053  RH  054%=      5-min Rain = 0
KCH1 102140Z 03003KT 03/M05 A2992 RMK A01 T00321054  RH  053%=      5-min Rain = 0
KCH1 102141Z 04002KT 03/M06 A2991 RMK A01 T00301055  RH  054%=      5-min Rain = 0
KCH1 102142Z 08002KT 03/M05 A2991 RMK A01 T00281054  RH  055%=      5-min Rain = 0
KCH1 102143Z 14001KT 03/M05 A2991 RMK A01 T00281053  RH  055%=      5-min Rain = 0
KCH1 102144Z 10002KT 03/M05 A2991 RMK A01 T00281052  RH  056%=      5-min Rain = 0
KCH1 102145Z 03002KT 03/M05 A2991 RMK A01 T00301049  RH  056%=      5-min Rain = 0
KCH1 102146Z 02003KT 03/M05 A2991 RMK A01 T00341049  RH  055%=      5-min Rain = 0
KCH1 102147Z 02001KT 04/M05 A2991 RMK A01 T00351051  RH  053%=      5-min Rain = 0
KCH1 102148Z 06001KT 03/M05 A2991 RMK A01 T00341053  RH  053%=      5-min Rain = 0
KCH1 102149Z 36003KT 03/M05 A2991 RMK A01 T00341053  RH  053%=      5-min Rain = 0
KCH1 102150Z 32001KT 03/M06 A2991 RMK A01 T00331055  RH  052%=      5-min Rain = 0
KCH1 102151Z 15000KT 03/M06 A2991 RMK A01 T00311055  RH  053%=      5-min Rain = 0
KCH1 102152Z 35001KT 03/M05 A2991 RMK A01 T00311054  RH  054%=      5-min Rain = 0
KCH1 102153Z 35005KT 03/M05 A2991 RMK A01 T00321052  RH  054%=      5-min Rain = 0
KCH1 102154Z 33004KT 03/M05 A2991 RMK A01 T00331052  RH  054%=      5-min Rain = 0
KCH1 102155Z 34004KT 03/M05 A2991 RMK A01 T00321053  RH  054%=      5-min Rain = 0
KCH1 102156Z 02005KT 03/M05 A2991 RMK A01 T00321052  RH  054%=      5-min Rain = 0
KCH1 102157Z 03004KT 04/M05 A2991 RMK A01 T00351053  RH  053%=      5-min Rain = 0
KCH1 102158Z 03004KT 04/M06 A2991 RMK A01 T00361056  RH  051%=      5-min Rain = 0
KCH1 102159Z 03006KT 04/M06 A2991 RMK A01 T00371057  RH  050%=      5-min Rain = 0
KCH1 102200Z 03006KT 04/M06 A2991 RMK A01 T00361058  RH  050%=      5-min Rain = 0
KCH1 102201Z 02004KT 04/M06 A2991 RMK A01 T00351057  RH  051%=      5-min Rain = 0
KCH1 102202Z 02002KT 04/M06 A2991 RMK A01 T00351057  RH  051%=      5-min Rain = 0
KCH1 102203Z 05000KT 04/M06 A2991 RMK A01 T00351056  RH  051%=      5-min Rain = 0
KCH1 102204Z 35002KT 04/M06 A2991 RMK A01 T00351056  RH  051%=      5-min Rain = 0
KCH1 102205Z 01003KT 04/M06 A2991 RMK A01 T00361055  RH  051%=      5-min Rain = 0
KCH1 102206Z 05003KT 04/M06 A2991 RMK A01 T00371057  RH  050%=      5-min Rain = 0
KCH1 102207Z 08005KT 04/M06 A2991 RMK A01 T00361057  RH  051%=      5-min Rain = 0
KCH1 102208Z 07006KT 04/M06 A299 RMK A01 T00361057  RH  051%=      5-min Rain = 0
KCH1 102209Z 05006KT 04/M06 A299 RMK A01 T00371056  RH  051%=      5-min Rain = 0
KCH1 102210Z 05004KT 04/M05 A2991 RMK A01 T00391053  RH  051%=      5-min Rain = 0
KCH1 102211Z 04003KT 04/M05 A299 RMK A01 T00401053  RH  051%=      5-min Rain = 0
KCH1 102212Z 04003KT 04/M05 A299 RMK A01 T00391054  RH  051%=      5-min Rain = 0
KCH1 102213Z 02003KT 04/M05 A299 RMK A01 T00401052  RH  051%=      5-min Rain = 0
KCH1 102214Z 36004KT 04/M05 A299 RMK A01 T00421054  RH  050%=      5-min Rain = 0
KCH1 102215Z 36004KT 04/M06 A299 RMK A01 T00411055  RH  050%=      5-min Rain = 0
KCH1 102216Z 00003KT 04/M06 A299 RMK A01 T00411055  RH  049%=      5-min Rain = 0
KCH1 102217Z 34002KT 04/M06 A299 RMK A01 T00401056  RH  050%=      5-min Rain = 0
KCH1 102218Z 36003KT 04/M06 A299 RMK A01 T00401055  RH  050%=      5-min Rain = 0
KCH1 102219Z 36002KT 04/M06 A299 RMK A01 T00391058  RH  049%=      5-min Rain = 0
KCH1 102220Z 34001KT 04/M06 A299 RMK A01 T00381058  RH  049%=      5-min Rain = 0
KCH1 102221Z 32000KT 04/M06 A299 RMK A01 T00381058  RH  050%=      5-min Rain = 0
KCH1 102222Z 08000KT 04/M06 A299 RMK A01 T00371058  RH  050%=      5-min Rain = 0
KCH1 102223Z 35001KT 04/M06 A299 RMK A01 T00391056  RH  050%=      5-min Rain = 0
KCH1 102224Z 03004KT 04/M06 A299 RMK A01 T00411056  RH  049%=      5-min Rain = 0
KCH1 102225Z 04003KT 04/M06 A299 RMK A01 T00421057  RH  049%=      5-min Rain = 0
KCH1 102226Z 03003KT 04/M06 A299 RMK A01 T00411058  RH  048%=      5-min Rain = 0
KCH1 102227Z 03003KT 04/M06 A299 RMK A01 T00401059  RH  049%=      5-min Rain = 0
KCH1 102228Z 36001KT 04/M06 A299 RMK A01 T00401057  RH  049%=      5-min Rain = 0
KCH1 102229Z 04001KT 04/M06 A299 RMK A01 T00411057  RH  049%=      5-min Rain = 0
KCH1 102230Z 35002KT 04/M06 A299 RMK A01 T00431055  RH  049%=      5-min Rain = 0
KCH1 102231Z 00002KT 04/M06 A299 RMK A01 T00441055  RH  049%=      5-min Rain = 0
KCH1 102232Z 35002KT 04/M06 A299 RMK A01 T00421055  RH  049%=      5-min Rain = 0
KCH1 102233Z 36001KT 04/M06 A299 RMK A01 T00401056  RH  050%=      5-min Rain = 0
KCH1 102234Z 06001KT 04/M06 A299 RMK A01 T00391055  RH  051%=      5-min Rain = 0
KCH1 102235Z 06000KT 04/M05 A299 RMK A01 T00391054  RH  051%=      5-min Rain = 0
KCH1 102236Z 34002KT 04/M05 A2989 RMK A01 T00401053  RH  051%=      5-min Rain = 0
KCH1 102237Z 36002KT 04/M05 A2989 RMK A01 T00401052  RH  051%=      5-min Rain = 0
KCH1 102238Z 05005KT 04/M05 A2989 RMK A01 T00391053  RH  051%=      5-min Rain = 0
KCH1 102239Z 06005KT 04/M06 A2989 RMK A01 T00401056  RH  050%=      5-min Rain = 0
KCH1 102240Z 05003KT 04/M06 A2989 RMK A01 T00401058  RH  049%=      5-min Rain = 0
KCH1 102241Z 04004KT 04/M06 A2989 RMK A01 T00391057  RH  049%=      5-min Rain = 0
KCH1 102242Z 06005KT 04/M06 A2989 RMK A01 T00401056  RH  049%=      5-min Rain = 0
KCH1 102243Z 07004KT 04/M06 A2989 RMK A01 T00401058  RH  049%=      5-min Rain = 0
KCH1 102244Z 07003KT 04/M06 A2989 RMK A01 T00381058  RH  050%=      5-min Rain = 0
KCH1 102245Z 08002KT 04/M06 A2989 RMK A01 T00381057  RH  050%=      5-min Rain = 0
KCH1 102246Z 10002KT 04/M06 A2989 RMK A01 T00391057  RH  050%=      5-min Rain = 0
KCH1 102247Z 10004KT 04/M06 A2989 RMK A01 T00401056  RH  050%=      5-min Rain = 0
KCH1 102248Z 08004KT 04/M06 A2988 RMK A01 T00401055  RH  050%=      5-min Rain = 0
KCH1 102249Z 01005KT 04/M05 A2988 RMK A01 T00411054  RH  050%=      5-min Rain = 0
KCH1 102250Z 03005KT 04/M05 A2989 RMK A01 T00411054  RH  050%=      5-min Rain = 0
KCH1 102251Z 05006KT 04/M06 A2989 RMK A01 T00411056  RH  049%=      5-min Rain = 0
KCH1 102252Z 05005KT 04/M06 A2989 RMK A01 T00401059  RH  049%=      5-min Rain = 0
KCH1 102253Z 05005KT 04/M06 A2989 RMK A01 T00381059  RH  049%=      5-min Rain = 0
KCH1 102254Z 07005KT 04/M06 A2988 RMK A01 T00381058  RH  050%=      5-min Rain = 0
KCH1 102255Z 07005KT 04/M06 A2988 RMK A01 T00381058  RH  050%=      5-min Rain = 0
KCH1 102256Z 06006KT 04/M06 A2988 RMK A01 T00381058  RH  049%=      5-min Rain = 0
KCH1 102257Z 06005KT 04/M06 A2988 RMK A01 T00371059  RH  050%=      5-min Rain = 0
KCH1 102258Z 06005KT 04/M06 A2988 RMK A01 T00371058  RH  050%=      5-min Rain = 0
KCH1 102259Z 07005KT 04/M06 A2988 RMK A01 T00371059  RH  050%=      5-min Rain = 0
KCH1 102300Z 07006KT 04/M06 A2988 RMK A01 T00371059  RH  050%=      5-min Rain = 0
KCH1 102301Z 06006KT 04/M06 A2988 RMK A01 T00371058  RH  050%=      5-min Rain = 0
KCH1 102302Z 05003KT 04/M06 A2988 RMK A01 T00361059  RH  050%=      5-min Rain = 0
KCH1 102303Z 07004KT 04/M06 A2988 RMK A01 T00351058  RH  051%=      5-min Rain = 0
KCH1 102304Z 07005KT 04/M06 A2988 RMK A01 T00351058  RH  051%=      5-min Rain = 0
KCH1 102305Z 06005KT 04/M06 A2988 RMK A01 T00351058  RH  051%=      5-min Rain = 0
KCH1 102306Z 05004KT 03/M06 A2988 RMK A01 T00341058  RH  051%=      5-min Rain = 0
KCH1 102307Z 07002KT 03/M06 A2988 RMK A01 T00341057  RH  051%=      5-min Rain = 0
KCH1 102308Z 08003KT 03/M06 A2988 RMK A01 T00341057  RH  051%=      5-min Rain = 0
KCH1 102309Z 09004KT 03/M06 A2988 RMK A01 T00341057  RH  051%=      5-min Rain = 0
KCH1 102310Z 10004KT 03/M06 A2988 RMK A01 T00341057  RH  051%=      5-min Rain = 0
KCH1 102311Z 10003KT 03/M06 A2988 RMK A01 T00341057  RH  051%=      5-min Rain = 0
KCH1 102312Z 12002KT 03/M06 A2988 RMK A01 T00341057  RH  051%=      5-min Rain = 0
KCH1 102313Z 09002KT 04/M06 A2988 RMK A01 T00351056  RH  051%=      5-min Rain = 0
KCH1 102314Z 09004KT 04/M06 A2988 RMK A01 T00351056  RH  051%=      5-min Rain = 0
KCH1 102315Z 08004KT 04/M06 A2988 RMK A01 T00361057  RH  051%=      5-min Rain = 0
KCH1 102316Z 06005KT 04/M06 A2988 RMK A01 T00361056  RH  051%=      5-min Rain = 0
KCH1 102317Z 05006KT 04/M06 A2988 RMK A01 T00351057  RH  051%=      5-min Rain = 0
KCH1 102318Z 05005KT 03/M06 A2988 RMK A01 T00341057  RH  051%=      5-min Rain = 0
KCH1 102319Z 06005KT 03/M06 A2988 RMK A01 T00331057  RH  052%=      5-min Rain = 0
KCH1 102320Z 06004KT 03/M06 A2988 RMK A01 T00331057  RH  052%=      5-min Rain = 0
KCH1 102321Z 07003KT 03/M06 A2988 RMK A01 T00321057  RH  052%=      5-min Rain = 0
KCH1 102322Z 06003KT 03/M06 A2988 RMK A01 T00321057  RH  052%=      5-min Rain = 0
KCH1 102323Z 06003KT 03/M06 A2988 RMK A01 T00311057  RH  052%=      5-min Rain = 0
KCH1 102324Z 05004KT 03/M06 A2988 RMK A01 T00321057  RH  052%=      5-min Rain = 0
KCH1 102325Z 04005KT 03/M06 A2988 RMK A01 T00331056  RH  052%=      5-min Rain = 0
KCH1 102326Z 04003KT 03/M06 A2988 RMK A01 T00321057  RH  052%=      5-min Rain = 0
KCH1 102327Z 06004KT 03/M06 A2988 RMK A01 T00321057  RH  052%=      5-min Rain = 0
KCH1 102328Z 06004KT 03/M06 A2988 RMK A01 T00321057  RH  052%=      5-min Rain = 0
KCH1 102329Z 06004KT 03/M06 A2988 RMK A01 T00311057  RH  052%=      5-min Rain = 0
KCH1 102330Z 05004KT 03/M06 A2988 RMK A01 T00321056  RH  053%=      5-min Rain = 0
KCH1 102331Z 05005KT 03/M06 A2988 RMK A01 T00321056  RH  052%=      5-min Rain = 0
KCH1 102332Z 05006KT 03/M06 A2988 RMK A01 T00321057  RH  052%=      5-min Rain = 0
KCH1 102333Z 05006KT 03/M06 A2988 RMK A01 T00321057  RH  052%=      5-min Rain = 0
KCH1 102334Z 05006KT 03/M06 A2988 RMK A01 T00311057  RH  052%=      5-min Rain = 0
KCH1 102335Z 03005KT 03/M06 A2988 RMK A01 T00311057  RH  052%=      5-min Rain = 0
KCH1 102336Z 05005KT 03/M06 A2988 RMK A01 T00311057  RH  053%=      5-min Rain = 0
KCH1 102337Z 05005KT 03/M06 A2988 RMK A01 T00301057  RH  053%=      5-min Rain = 0
KCH1 102338Z 06005KT 03/M06 A2988 RMK A01 T00301057  RH  053%=      5-min Rain = 0
KCH1 102339Z 08005KT 03/M06 A2988 RMK A01 T00291057  RH  053%=      5-min Rain = 0
KCH1 102340Z 06006KT 03/M06 A2988 RMK A01 T00291057  RH  053%=      5-min Rain = 0
KCH1 102341Z 04006KT 03/M06 A2988 RMK A01 T00291057  RH  053%=      5-min Rain = 0
KCH1 102342Z 04007KT 03/M06 A2988 RMK A01 T00291057  RH  053%=      5-min Rain = 0
KCH1 102343Z 04006KT 03/M06 A2988 RMK A01 T00281058  RH  053%=      5-min Rain = 0
KCH1 102344Z 04007KT 03/M06 A2988 RMK A01 T00281058  RH  053%=      5-min Rain = 0
KCH1 102345Z 05006KT 03/M06 A2988 RMK A01 T00281057  RH  053%=      5-min Rain = 0
KCH1 102346Z 05005KT 03/M06 A2988 RMK A01 T00271058  RH  054%=      5-min Rain = 0
KCH1 102347Z 04005KT 03/M06 A2988 RMK A01 T00281057  RH  054%=      5-min Rain = 0
KCH1 102348Z 04005KT 03/M06 A2988 RMK A01 T00271057  RH  054%=      5-min Rain = 0
KCH1 102349Z 04005KT 03/M06 A2988 RMK A01 T00281057  RH  054%=      5-min Rain = 0
KCH1 102350Z 05005KT 03/M06 A2988 RMK A01 T00271057  RH  054%=      5-min Rain = 0
KCH1 102351Z 03007KT 03/M06 A2988 RMK A01 T00261057  RH  054%=      5-min Rain = 0
KCH1 102352Z 04006KT 03/M06 A2988 RMK A01 T00261058  RH  054%=      5-min Rain = 0
KCH1 102353Z 03005KT 03/M06 A2988 RMK A01 T00251058  RH  054%=      5-min Rain = 0
KCH1 102354Z 04005KT 03/M06 A2988 RMK A01 T00251057  RH  054%=      5-min Rain = 0
KCH1 102355Z 04007KT 03/M06 A2989 RMK A01 T00251058  RH  055%=      5-min Rain = 0
KCH1 102356Z 04006KT 02/M06 A2989 RMK A01 T00241058  RH  055%=      5-min Rain = 0
KCH1 102357Z 05008KT 02/M06 A2989 RMK A01 T00241057  RH  055%=      5-min Rain = 0
KCH1 102358Z 05009KT 02/M06 A2989 RMK A01 T00231058  RH  055%=      5-min Rain = 0
KCH1 102359Z 05007KT 02/M06 A2989 RMK A01 T00221059  RH  055%=      5-min Rain = 0
KCH1 110000Z 06007KT 02/M06 A2989 RMK A01 T00211059  RH  055%=      5-min Rain = 0
KCH1 110001Z 05007KT 02/M06 A2989 RMK A01 T00201060  RH  055%=      5-min Rain = 0
KCH1 110002Z 05008KT 02/M06 A2989 RMK A01 T00201060  RH  056%=      5-min Rain = 0
KCH1 110003Z 06007KT 02/M06 A2989 RMK A01 T00191060  RH  056%=      5-min Rain = 0
KCH1 110004Z 05009KT 02/M06 A2989 RMK A01 T00191060  RH  056%=      5-min Rain = 0
KCH1 110005Z 05009KT 02/M06 A2989 RMK A01 T00181059  RH  056%=      5-min Rain = 0
KCH1 110006Z 06008KT 02/M06 A2989 RMK A01 T00181060  RH  056%=      5-min Rain = 0
KCH1 110007Z 06007KT 02/M06 A2989 RMK A01 T00171060  RH  057%=      5-min Rain = 0
KCH1 110008Z 05008KT 02/M06 A2989 RMK A01 T00171060  RH  057%=      5-min Rain = 0
KCH1 110009Z 05007KT 02/M06 A2989 RMK A01 T00161060  RH  057%=      5-min Rain = 0
KCH1 110010Z 05007KT 02/M06 A2989 RMK A01 T00161059  RH  057%=      5-min Rain = 0
KCH1 110011Z 05006KT 02/M06 A2989 RMK A01 T00161060  RH  057%=      5-min Rain = 0
KCH1 110012Z 05007KT 02/M06 A2989 RMK A01 T00151060  RH  057%=      5-min Rain = 0
KCH1 110013Z 04007KT 02/M06 A2989 RMK A01 T00151060  RH  058%=      5-min Rain = 0
KCH1 110014Z 04006KT 01/M06 A2989 RMK A01 T00141060  RH  058%=      5-min Rain = 0
KCH1 110015Z 04007KT 01/M06 A2989 RMK A01 T00141060  RH  058%=      5-min Rain = 0
KCH1 110016Z 04008KT 01/M06 A2989 RMK A01 T00141060  RH  058%=      5-min Rain = 0
KCH1 110017Z 04007KT 01/M06 A2989 RMK A01 T00131059  RH  058%=      5-min Rain = 0
KCH1 110018Z 04007KT 01/M06 A2989 RMK A01 T00131059  RH  059%=      5-min Rain = 0
KCH1 110019Z 04008KT 01/M06 A2989 RMK A01 T00131059  RH  059%=      5-min Rain = 0
KCH1 110020Z 05008KT 01/M06 A2989 RMK A01 T00131059  RH  059%=      5-min Rain = 0
KCH1 110021Z 04007KT 01/M06 A2989 RMK A01 T00131059  RH  059%=      5-min Rain = 0
KCH1 110022Z 05007KT 01/M06 A2989 RMK A01 T00121059  RH  059%=      5-min Rain = 0
KCH1 110023Z 04007KT 01/M06 A2989 RMK A01 T00121059  RH  059%=      5-min Rain = 0
KCH1 110024Z 04007KT 01/M06 A2989 RMK A01 T00111060  RH  059%=      5-min Rain = 0
KCH1 110025Z 05006KT 01/M06 A299 RMK A01 T00111060  RH  059%=      5-min Rain = 0
KCH1 110026Z 04006KT 01/M06 A299 RMK A01 T00111059  RH  060%=      5-min Rain = 0
KCH1 110027Z 05007KT 01/M06 A2989 RMK A01 T00111059  RH  059%=      5-min Rain = 0
KCH1 110028Z 05008KT 01/M06 A2989 RMK A01 T00101059  RH  060%=      5-min Rain = 0
KCH1 110029Z 05007KT 01/M06 A2989 RMK A01 T00101060  RH  060%=      5-min Rain = 0
KCH1 110030Z 05006KT 01/M06 A2989 RMK A01 T00101059  RH  060%=      5-min Rain = 0
KCH1 110031Z 06006KT 01/M06 A2989 RMK A01 T00091060  RH  060%=      5-min Rain = 0
KCH1 110032Z 06006KT 01/M06 A2989 RMK A01 T00081060  RH  060%=      5-min Rain = 0
KCH1 110033Z 06007KT 01/M06 A2989 RMK A01 T00081060  RH  060%=      5-min Rain = 0
KCH1 110034Z 05006KT 01/M06 A2989 RMK A01 T00071060  RH  061%=      5-min Rain = 0
KCH1 110035Z 06005KT 01/M06 A2989 RMK A01 T00071060  RH  061%=      5-min Rain = 0
KCH1 110036Z 05006KT 01/M06 A2989 RMK A01 T00061061  RH  061%=      5-min Rain = 0
KCH1 110037Z 06006KT 01/M06 A2989 RMK A01 T00061061  RH  061%=      5-min Rain = 0
KCH1 110038Z 05007KT 01/M06 A2989 RMK A01 T00061061  RH  061%=      5-min Rain = 0
KCH1 110039Z 06007KT 01/M06 A2989 RMK A01 T00051061  RH  061%=      5-min Rain = 0
KCH1 110040Z 06007KT 01/M06 A2989 RMK A01 T00051061  RH  061%=      5-min Rain = 0
KCH1 110041Z 06007KT 01/M06 A2989 RMK A01 T00051062  RH  061%=      5-min Rain = 0
KCH1 110042Z 06006KT 00/M06 A2989 RMK A01 T00041062  RH  061%=      5-min Rain = 0
KCH1 110043Z 06006KT 00/M06 A2989 RMK A01 T00041062  RH  061%=      5-min Rain = 0
KCH1 110044Z 06006KT 00/M06 A299 RMK A01 T00031062  RH  061%=      5-min Rain = 0
KCH1 110045Z 06006KT 00/M06 A299 RMK A01 T00041062  RH  061%=      5-min Rain = 0
KCH1 110046Z 06006KT 00/M06 A299 RMK A01 T00031062  RH  061%=      5-min Rain = 0
KCH1 110047Z 06006KT 00/M06 A299 RMK A01 T00031063  RH  062%=      5-min Rain = 0
KCH1 110048Z 06006KT 00/M06 A2989 RMK A01 T00021063  RH  062%=      5-min Rain = 0
KCH1 110049Z 06007KT 00/M06 A2989 RMK A01 T00021063  RH  062%=      5-min Rain = 0
KCH1 110050Z 06005KT 00/M06 A2989 RMK A01 T00021063  RH  062%=      5-min Rain = 0
KCH1 110051Z 06007KT 00/M06 A2989 RMK A01 T00011063  RH  062%=      5-min Rain = 0
KCH1 110052Z 06006KT 00/M06 A299 RMK A01 T00011063  RH  062%=      5-min Rain = 0
KCH1 110053Z 06006KT 00/M06 A299 RMK A01 T00011063  RH  062%=      5-min Rain = 0
KCH1 110054Z 06006KT 00/M06 A299 RMK A01 T00011063  RH  062%=      5-min Rain = 0
KCH1 110055Z 06006KT 00/06 A299 RMK A01 T00000-64  RH  062%=      5-min Rain = 0
KCH1 110056Z 06007KT 00/06 A299 RMK A01 T00-00-64  RH  062%=      5-min Rain = 0
KCH1 110057Z 06007KT 00/06 A299 RMK A01 T00000-63  RH  062%=      5-min Rain = 0
KCH1 110058Z 06006KT M00/M06 A299 RMK A01 T10011064  RH  063%=      5-min Rain = 0
KCH1 110059Z 06006KT M00/M06 A2989 RMK A01 T10011063  RH  063%=      5-min Rain = 0
KCH1 110100Z 05006KT M00/M06 A2989 RMK A01 T10011063  RH  063%=      5-min Rain = 0
KCH1 110101Z 06006KT M00/M06 A299 RMK A01 T10011063  RH  063%=      5-min Rain = 0
KCH1 110102Z 06006KT M00/M06 A299 RMK A01 T10011063  RH  063%=      5-min Rain = 0
KCH1 110103Z 06006KT M00/M06 A299 RMK A01 T10021064  RH  063%=      5-min Rain = 0
KCH1 110104Z 06006KT M00/M06 A299 RMK A01 T10021064  RH  063%=      5-min Rain = 0
KCH1 110105Z 06006KT M00/M06 A299 RMK A01 T10021064  RH  063%=      5-min Rain = 0
KCH1 110106Z 06005KT M00/M06 A299 RMK A01 T10021063  RH  063%=      5-min Rain = 0
KCH1 110107Z 06005KT M00/M06 A299 RMK A01 T10021063  RH  064%=      5-min Rain = 0
KCH1 110108Z 06005KT M00/M06 A299 RMK A01 T10031063  RH  064%=      5-min Rain = 0
KCH1 110109Z 06005KT M00/M06 A299 RMK A01 T10031063  RH  064%=      5-min Rain = 0
KCH1 110110Z 06006KT M00/M06 A299 RMK A01 T10031063  RH  064%=      5-min Rain = 0
KCH1 110111Z 06005KT M00/M06 A299 RMK A01 T10031064  RH  064%=      5-min Rain = 0
KCH1 110112Z 06005KT M00/M06 A299 RMK A01 T10031064  RH  064%=      5-min Rain = 0
KCH1 110113Z 05005KT M00/M06 A299 RMK A01 T10031063  RH  064%=      5-min Rain = 0
KCH1 110114Z 05005KT M00/M06 A299 RMK A01 T10041064  RH  064%=      5-min Rain = 0
KCH1 110115Z 05005KT M00/M06 A2991 RMK A01 T10041064  RH  064%=      5-min Rain = 0
KCH1 110116Z 05005KT M01/M06 A2991 RMK A01 T10051064  RH  064%=      5-min Rain = 0
KCH1 110117Z 05005KT M01/M06 A2991 RMK A01 T10051064  RH  064%=      5-min Rain = 0
KCH1 110118Z 06005KT M01/M06 A2991 RMK A01 T10051064  RH  065%=      5-min Rain = 0
KCH1 110119Z 05005KT M01/M06 A2991 RMK A01 T10061064  RH  065%=      5-min Rain = 0
KCH1 110120Z 06005KT M01/M06 A2991 RMK A01 T10061064  RH  065%=      5-min Rain = 0
KCH1 110121Z 06005KT M01/M06 A2991 RMK A01 T10061064  RH  065%=      5-min Rain = 0
KCH1 110122Z 06005KT M01/M06 A299 RMK A01 T10061063  RH  065%=      5-min Rain = 0
KCH1 110123Z 07005KT M01/M06 A299 RMK A01 T10061064  RH  065%=      5-min Rain = 0
KCH1 110124Z 07005KT M01/M06 A299 RMK A01 T10071064  RH  065%=      5-min Rain = 0
KCH1 110125Z 07005KT M01/M06 A299 RMK A01 T10071064  RH  065%=      5-min Rain = 0
KCH1 110126Z 06006KT M01/M06 A299 RMK A01 T10071064  RH  065%=      5-min Rain = 0
KCH1 110127Z 06005KT M01/M07 A299 RMK A01 T10081065  RH  065%=      5-min Rain = 0
KCH1 110128Z 06005KT M01/M07 A2991 RMK A01 T10081065  RH  065%=      5-min Rain = 0
KCH1 110129Z 06006KT M01/M07 A2991 RMK A01 T10081065  RH  065%=      5-min Rain = 0
KCH1 110130Z 06005KT M01/M07 A2991 RMK A01 T10081065  RH  065%=      5-min Rain = 0
KCH1 110131Z 06005KT M01/M07 A2991 RMK A01 T10071065  RH  065%=      5-min Rain = 0
KCH1 110132Z 05006KT M01/M07 A2991 RMK A01 T10071065  RH  065%=      5-min Rain = 0
KCH1 110133Z 06006KT M01/M07 A2991 RMK A01 T10081065  RH  065%=      5-min Rain = 0
KCH1 110134Z 06005KT M01/M07 A2991 RMK A01 T10081065  RH  065%=      5-min Rain = 0
KCH1 110135Z 06006KT M01/M07 A2991 RMK A01 T10081065  RH  065%=      5-min Rain = 0
KCH1 110136Z 06006KT M01/M07 A2991 RMK A01 T10081066  RH  065%=      5-min Rain = 0
KCH1 110137Z 06006KT M01/M07 A2991 RMK A01 T10091066  RH  065%=      5-min Rain = 0
KCH1 110138Z 05005KT M01/M07 A2991 RMK A01 T10091066  RH  065%=      5-min Rain = 0
KCH1 110139Z 06005KT M01/M07 A2991 RMK A01 T10091066  RH  065%=      5-min Rain = 0
KCH1 110140Z 06005KT M01/M07 A2991 RMK A01 T10091066  RH  065%=      5-min Rain = 0
KCH1 110141Z 06005KT M01/M07 A2991 RMK A01 T10091066  RH  065%=      5-min Rain = 0
KCH1 110142Z 06006KT M01/M07 A2991 RMK A01 T10091066  RH  065%=      5-min Rain = 0
KCH1 110143Z 06006KT M01/M07 A2991 RMK A01 T10101066  RH  065%=      5-min Rain = 0
KCH1 110144Z 06005KT M01/M07 A2991 RMK A01 T10101066  RH  065%=      5-min Rain = 0
KCH1 110145Z 06005KT M01/M07 A2991 RMK A01 T10091066  RH  065%=      5-min Rain = 0
KCH1 110146Z 06005KT M01/M07 A2991 RMK A01 T10091066  RH  065%=      5-min Rain = 0
KCH1 110147Z 06005KT M01/M07 A2991 RMK A01 T10101067  RH  065%=      5-min Rain = 0
KCH1 110148Z 06006KT M01/M07 A2991 RMK A01 T10101067  RH  065%=      5-min Rain = 0
KCH1 110149Z 06005KT M01/M07 A2992 RMK A01 T10101067  RH  065%=      5-min Rain = 0
KCH1 110150Z 07005KT M01/M07 A2992 RMK A01 T10101067  RH  065%=      5-min Rain = 0
KCH1 110151Z 07006KT M01/M07 A2992 RMK A01 T10101067  RH  066%=      5-min Rain = 0
KCH1 110152Z 07006KT M01/M07 A2992 RMK A01 T10111067  RH  065%=      5-min Rain = 0
KCH1 110153Z 07005KT M01/M07 A2992 RMK A01 T10101067  RH  065%=      5-min Rain = 0
KCH1 110154Z 07005KT M01/M07 A2992 RMK A01 T10101067  RH  065%=      5-min Rain = 0
KCH1 110155Z 06005KT M01/M07 A2992 RMK A01 T10101067  RH  065%=      5-min Rain = 0
KCH1 110156Z 06005KT M01/M07 A2992 RMK A01 T10101067  RH  065%=      5-min Rain = 0
KCH1 110157Z 07005KT M01/M07 A2992 RMK A01 T10101067  RH  065%=      5-min Rain = 0
KCH1 110158Z 07005KT M01/M07 A2992 RMK A01 T10101068  RH  065%=      5-min Rain = 0
KCH1 110159Z 07005KT M01/M07 A2992 RMK A01 T10101068  RH  065%=      5-min Rain = 0
KCH1 110200Z 07005KT M01/M07 A2993 RMK A01 T10101067  RH  065%=      5-min Rain = 0
KCH1 110201Z 07005KT M01/M07 A2993 RMK A01 T10101067  RH  065%=      5-min Rain = 0
KCH1 110202Z 07006KT M01/M07 A2993 RMK A01 T10101068  RH  065%=      5-min Rain = 0
KCH1 110203Z 07005KT M01/M07 A2993 RMK A01 T10091067  RH  065%=      5-min Rain = 0
KCH1 110204Z 07005KT M01/M07 A2993 RMK A01 T10091067  RH  065%=      5-min Rain = 0
KCH1 110205Z 07006KT M01/M07 A2993 RMK A01 T10091067  RH  065%=      5-min Rain = 0
KCH1 110206Z 07005KT M01/M07 A2993 RMK A01 T10091067  RH  064%=      5-min Rain = 0
KCH1 110207Z 07005KT M01/M07 A2993 RMK A01 T10081067  RH  064%=      5-min Rain = 0
KCH1 110208Z 07005KT M01/M07 A2993 RMK A01 T10091067  RH  064%=      5-min Rain = 0
KCH1 110209Z 08005KT M01/M07 A2993 RMK A01 T10091068  RH  065%=      5-min Rain = 0
KCH1 110210Z 08005KT M01/M07 A2993 RMK A01 T10091067  RH  065%=      5-min Rain = 0
KCH1 110211Z 08004KT M01/M07 A2993 RMK A01 T10091067  RH  065%=      5-min Rain = 0
KCH1 110212Z 08004KT M01/M07 A2993 RMK A01 T10091067  RH  065%=      5-min Rain = 0
KCH1 110213Z 09004KT M01/M07 A2993 RMK A01 T10091067  RH  065%=      5-min Rain = 0
KCH1 110214Z 08005KT M01/M07 A2993 RMK A01 T10091067  RH  065%=      5-min Rain = 0
KCH1 110215Z 08005KT M01/M07 A2993 RMK A01 T10101068  RH  065%=      5-min Rain = 0
KCH1 110216Z 08005KT M01/M07 A2993 RMK A01 T10091067  RH  065%=      5-min Rain = 0
KCH1 110217Z 08005KT M01/M07 A2993 RMK A01 T10091067  RH  065%=      5-min Rain = 0
KCH1 110218Z 08005KT M01/M07 A2993 RMK A01 T10081067  RH  065%=      5-min Rain = 0
KCH1 110219Z 09004KT M01/M07 A2993 RMK A01 T10081067  RH  065%=      5-min Rain = 0
KCH1 110220Z 09004KT M01/M07 A2993 RMK A01 T10091067  RH  065%=      5-min Rain = 0
KCH1 110221Z 08005KT M01/M07 A2993 RMK A01 T10091067  RH  065%=      5-min Rain = 0
KCH1 110222Z 08005KT M01/M07 A2993 RMK A01 T10091067  RH  065%=      5-min Rain = 0
KCH1 110223Z 08005KT M01/M07 A2993 RMK A01 T10091067  RH  065%=      5-min Rain = 0
KCH1 110224Z 08005KT M01/M07 A2993 RMK A01 T10091067  RH  065%=      5-min Rain = 0
KCH1 110225Z 08005KT M01/M07 A2993 RMK A01 T10091067  RH  065%=      5-min Rain = 0
KCH1 110226Z 07005KT M01/M07 A2993 RMK A01 T10101067  RH  065%=      5-min Rain = 0
KCH1 110227Z 07005KT M01/M07 A2994 RMK A01 T10101067  RH  065%=      5-min Rain = 0
KCH1 110228Z 07005KT M01/M07 A2993 RMK A01 T10101067  RH  065%=      5-min Rain = 0
KCH1 110229Z 06005KT M01/M07 A2994 RMK A01 T10101067  RH  065%=      5-min Rain = 0
KCH1 110230Z 06005KT M01/M07 A2994 RMK A01 T10101067  RH  065%=      5-min Rain = 0
KCH1 110231Z 05005KT M01/M07 A2994 RMK A01 T10101067  RH  065%=      5-min Rain = 0
KCH1 110232Z 05005KT M01/M07 A2994 RMK A01 T10101067  RH  065%=      5-min Rain = 0
KCH1 110233Z 06007KT M01/M07 A2993 RMK A01 T10101067  RH  065%=      5-min Rain = 0
KCH1 110234Z 06007KT M01/M07 A2993 RMK A01 T10101067  RH  065%=      5-min Rain = 0
KCH1 110235Z 07006KT M01/M07 A2993 RMK A01 T10101067  RH  065%=      5-min Rain = 0
KCH1 110236Z 07007KT M01/M07 A2993 RMK A01 T10101067  RH  065%=      5-min Rain = 0
KCH1 110237Z 07007KT M01/M07 A2993 RMK A01 T10101067  RH  065%=      5-min Rain = 0
KCH1 110238Z 07007KT M01/M07 A2993 RMK A01 T10101067  RH  065%=      5-min Rain = 0
KCH1 110239Z 07007KT M01/M07 A2993 RMK A01 T10101067  RH  065%=      5-min Rain = 0
KCH1 110240Z 07006KT M01/M07 A2993 RMK A01 T10101067  RH  065%=      5-min Rain = 0
KCH1 110241Z 06006KT M01/M07 A2993 RMK A01 T10101067  RH  065%=      5-min Rain = 0
KCH1 110242Z 06007KT M01/M07 A2993 RMK A01 T10101067  RH  065%=      5-min Rain = 0
KCH1 110243Z 06007KT M01/M07 A2993 RMK A01 T10111067  RH  065%=      5-min Rain = 0
KCH1 110244Z 06007KT M01/M07 A2993 RMK A01 T10111067  RH  066%=      5-min Rain = 0
KCH1 110245Z 06007KT M01/M07 A2993 RMK A01 T10111067  RH  066%=      5-min Rain = 0
KCH1 110246Z 05007KT M01/M07 A2993 RMK A01 T10111067  RH  066%=      5-min Rain = 0
KCH1 110247Z 06007KT M01/M07 A2993 RMK A01 T10101067  RH  066%=      5-min Rain = 0
KCH1 110248Z 06007KT M01/M07 A2993 RMK A01 T10101067  RH  065%=      5-min Rain = 0
KCH1 110249Z 06006KT M01/M07 A2993 RMK A01 T10101067  RH  065%=      5-min Rain = 0
KCH1 110250Z 07006KT M01/M07 A2993 RMK A01 T10101067  RH  065%=      5-min Rain = 0
KCH1 110251Z 06007KT M01/M07 A2993 RMK A01 T10111067  RH  065%=      5-min Rain = 0
KCH1 110252Z 07007KT M01/M07 A2992 RMK A01 T10101067  RH  065%=      5-min Rain = 0
KCH1 110253Z 06008KT M01/M07 A2992 RMK A01 T10101068  RH  065%=      5-min Rain = 0
KCH1 110254Z 06007KT M01/M07 A2992 RMK A01 T10101068  RH  065%=      5-min Rain = 0
KCH1 110255Z 06007KT M01/M07 A2992 RMK A01 T10091068  RH  065%=      5-min Rain = 0
KCH1 110256Z 06007KT M01/M07 A2992 RMK A01 T10091068  RH  064%=      5-min Rain = 0
KCH1 110257Z 07007KT M01/M07 A2992 RMK A01 T10091068  RH  064%=      5-min Rain = 0
KCH1 110258Z 07007KT M01/M07 A2992 RMK A01 T10091068  RH  064%=      5-min Rain = 0
KCH1 110259Z 07008KT M01/M07 A2992 RMK A01 T10091068  RH  064%=      5-min Rain = 0
KCH1 110300Z 07008KT M01/M07 A2992 RMK A01 T10091068  RH  064%=      5-min Rain = 0
KCH1 110301Z 07008KT M01/M07 A2992 RMK A01 T10091068  RH  064%=      5-min Rain = 0
KCH1 110302Z 07006KT M01/M07 A2992 RMK A01 T10091068  RH  064%=      5-min Rain = 0
KCH1 110303Z 07006KT M01/M07 A2992 RMK A01 T10081068  RH  064%=      5-min Rain = 0
KCH1 110304Z 07006KT M01/M07 A2992 RMK A01 T10091068  RH  064%=      5-min Rain = 0
KCH1 110305Z 07006KT M01/M07 A2992 RMK A01 T10091069  RH  064%=      5-min Rain = 0
KCH1 110306Z 07007KT M01/M07 A2992 RMK A01 T10101069  RH  064%=      5-min Rain = 0
KCH1 110307Z 07005KT M01/M07 A2992 RMK A01 T10101069  RH  064%=      5-min Rain = 0
KCH1 110308Z 07005KT M01/M07 A2992 RMK A01 T10101069  RH  064%=      5-min Rain = 0
KCH1 110309Z 08005KT M01/M07 A2993 RMK A01 T10091069  RH  064%=      5-min Rain = 0
KCH1 110310Z 08004KT M01/M07 A2993 RMK A01 T10091068  RH  064%=      5-min Rain = 0
KCH1 110311Z 09003KT M01/M07 A2993 RMK A01 T10091069  RH  064%=      5-min Rain = 0
KCH1 110312Z 09003KT M01/M07 A2993 RMK A01 T10091069  RH  064%=      5-min Rain = 0
KCH1 110313Z 09003KT M01/M07 A2993 RMK A01 T10101069  RH  064%=      5-min Rain = 0
KCH1 110314Z 09002KT M01/M07 A2993 RMK A01 T10101069  RH  064%=      5-min Rain = 0
KCH1 110315Z 09004KT M01/M07 A2993 RMK A01 T10101069  RH  064%=      5-min Rain = 0
KCH1 110316Z 08005KT M01/M07 A2993 RMK A01 T10101069  RH  064%=      5-min Rain = 0
KCH1 110317Z 08005KT M01/M07 A2993 RMK A01 T10101069  RH  064%=      5-min Rain = 0
KCH1 110318Z 08005KT M01/M07 A2993 RMK A01 T10111069  RH  065%=      5-min Rain = 0
KCH1 110319Z 08005KT M01/M07 A2993 RMK A01 T10111069  RH  065%=      5-min Rain = 0
KCH1 110320Z 08006KT M01/M07 A2993 RMK A01 T10111069  RH  065%=      5-min Rain = 0
KCH1 110321Z 07005KT M01/M07 A2993 RMK A01 T10111069  RH  065%=      5-min Rain = 0
KCH1 110322Z 07007KT M01/M07 A2993 RMK A01 T10111069  RH  065%=      5-min Rain = 0
KCH1 110323Z 05005KT M01/M07 A2993 RMK A01 T10111069  RH  065%=      5-min Rain = 0
KCH1 110324Z 05005KT M01/M07 A2993 RMK A01 T10101069  RH  064%=      5-min Rain = 0
KCH1 110325Z 05004KT M01/M07 A2993 RMK A01 T10101069  RH  064%=      5-min Rain = 0
KCH1 110326Z 06004KT M01/M07 A2994 RMK A01 T10111069  RH  065%=      5-min Rain = 0
KCH1 110327Z 05005KT M01/M07 A2993 RMK A01 T10111069  RH  065%=      5-min Rain = 0
KCH1 110328Z 05005KT M01/M07 A2993 RMK A01 T10101069  RH  065%=      5-min Rain = 0
KCH1 110329Z 06006KT M01/M07 A2994 RMK A01 T10111069  RH  065%=      5-min Rain = 0
KCH1 110330Z 05006KT M01/M07 A2994 RMK A01 T10111069  RH  065%=      5-min Rain = 0
KCH1 110331Z 04005KT M01/M07 A2994 RMK A01 T10111069  RH  065%=      5-min Rain = 0
KCH1 110332Z 04005KT M01/M07 A2994 RMK A01 T10111069  RH  065%=      5-min Rain = 0
KCH1 110333Z 05005KT M01/M07 A2994 RMK A01 T10101069  RH  065%=      5-min Rain = 0
KCH1 110334Z 05003KT M01/M07 A2995 RMK A01 T10111069  RH  064%=      5-min Rain = 0
KCH1 110335Z 05004KT M01/M07 A2995 RMK A01 T10101068  RH  064%=      5-min Rain = 0
KCH1 110336Z 04004KT M01/M07 A2995 RMK A01 T10101068  RH  065%=      5-min Rain = 0
KCH1 110337Z 03004KT M01/M07 A2995 RMK A01 T10101069  RH  065%=      5-min Rain = 0
KCH1 110338Z 03003KT M01/M07 A2995 RMK A01 T10101068  RH  065%=      5-min Rain = 0
KCH1 110339Z 04003KT M01/M07 A2995 RMK A01 T10111069  RH  065%=      5-min Rain = 0
KCH1 110340Z 05003KT M01/M07 A2996 RMK A01 T10111069  RH  065%=      5-min Rain = 0
KCH1 110341Z 05005KT M01/M07 A2995 RMK A01 T10111069  RH  065%=      5-min Rain = 0
KCH1 110342Z 05005KT M01/M07 A2995 RMK A01 T10111069  RH  065%=      5-min Rain = 0
KCH1 110343Z 06006KT M01/M07 A2995 RMK A01 T10111069  RH  065%=      5-min Rain = 0
KCH1 110344Z 06005KT M01/M07 A2996 RMK A01 T10111069  RH  065%=      5-min Rain = 0
KCH1 110345Z 05004KT M01/M07 A2995 RMK A01 T10111069  RH  065%=      5-min Rain = 0
KCH1 110346Z 04005KT M01/M07 A2995 RMK A01 T10111069  RH  065%=      5-min Rain = 0
KCH1 110347Z 03006KT M01/M07 A2995 RMK A01 T10121069  RH  065%=      5-min Rain = 0
KCH1 110348Z 03004KT M01/M07 A2995 RMK A01 T10121069  RH  065%=      5-min Rain = 0
KCH1 110349Z 04003KT M01/M07 A2995 RMK A01 T10131069  RH  065%=      5-min Rain = 0
KCH1 110350Z 03004KT M01/M07 A2995 RMK A01 T10131069  RH  065%=      5-min Rain = 0
KCH1 110351Z 03003KT M01/M07 A2995 RMK A01 T10131069  RH  065%=      5-min Rain = 0
KCH1 110352Z 02003KT M01/M07 A2995 RMK A01 T10131069  RH  065%=      5-min Rain = 0
KCH1 110353Z 03005KT M01/M07 A2995 RMK A01 T10121069  RH  065%=      5-min Rain = 0
KCH1 110354Z 03006KT M01/M07 A2995 RMK A01 T10121069  RH  065%=      5-min Rain = 0
KCH1 110355Z 03006KT M01/M07 A2995 RMK A01 T10121069  RH  065%=      5-min Rain = 0
KCH1 110356Z 03005KT M01/M07 A2995 RMK A01 T10111070  RH  064%=      5-min Rain = 0
KCH1 110357Z 04006KT M01/M07 A2995 RMK A01 T10111070  RH  064%=      5-min Rain = 0
KCH1 110358Z 04006KT M01/M07 A2995 RMK A01 T10111070  RH  064%=      5-min Rain = 0
KCH1 110359Z 04006KT M01/M07 A2995 RMK A01 T10101070  RH  064%=      5-min Rain = 0
KCH1 110400Z 04007KT M01/M07 A2995 RMK A01 T10111070  RH  064%=      5-min Rain = 0
KCH1 110401Z 04005KT M01/M07 A2995 RMK A01 T10101070  RH  064%=      5-min Rain = 0
KCH1 110402Z 04006KT M01/M07 A2995 RMK A01 T10101070  RH  064%=      5-min Rain = 0
KCH1 110403Z 04008KT M01/M07 A2995 RMK A01 T10111070  RH  064%=      5-min Rain = 0
KCH1 110404Z 04006KT M01/M07 A2995 RMK A01 T10111070  RH  064%=      5-min Rain = 0
KCH1 110405Z 04007KT M01/M07 A2995 RMK A01 T10111070  RH  064%=      5-min Rain = 0
KCH1 110406Z 04008KT M01/M07 A2995 RMK A01 T10111070  RH  064%=      5-min Rain = 0
KCH1 110407Z 04008KT M01/M07 A2995 RMK A01 T10111070  RH  064%=      5-min Rain = 0
KCH1 110408Z 04009KT M01/M07 A2995 RMK A01 T10101070  RH  064%=      5-min Rain = 0
KCH1 110409Z 04007KT M01/M07 A2995 RMK A01 T10101070  RH  064%=      5-min Rain = 0
KCH1 110410Z 04007KT M01/M07 A2995 RMK A01 T10101070  RH  064%=      5-min Rain = 0
KCH1 110411Z 04007KT M01/M07 A2995 RMK A01 T10101070  RH  064%=      5-min Rain = 0
KCH1 110412Z 04007KT M01/M07 A2995 RMK A01 T10101070  RH  064%=      5-min Rain = 0
KCH1 110413Z 04007KT M01/M07 A2995 RMK A01 T10101070  RH  064%=      5-min Rain = 0
KCH1 110414Z 04008KT M01/M07 A2995 RMK A01 T10091070  RH  064%=      5-min Rain = 0
KCH1 110415Z 04008KT M01/M07 A2995 RMK A01 T10091070  RH  063%=      5-min Rain = 0
KCH1 110416Z 04007KT M01/M07 A2995 RMK A01 T10091070  RH  063%=      5-min Rain = 0
KCH1 110417Z 03009KT M01/M07 A2995 RMK A01 T10091070  RH  063%=      5-min Rain = 0
KCH1 110418Z 03009KT M01/M07 A2995 RMK A01 T10081071  RH  063%=      5-min Rain = 0
KCH1 110419Z 03008KT M01/M07 A2995 RMK A01 T10081071  RH  062%=      5-min Rain = 0
KCH1 110420Z 04007KT M01/M07 A2995 RMK A01 T10071071  RH  062%=      5-min Rain = 0
KCH1 110421Z 04008KT M01/M07 A2995 RMK A01 T10081071  RH  062%=      5-min Rain = 0
KCH1 110422Z 03009KT M01/M07 A2995 RMK A01 T10081071  RH  062%=      5-min Rain = 0
KCH1 110423Z 04009KT M01/M07 A2995 RMK A01 T10081071  RH  062%=      5-min Rain = 0
KCH1 110424Z 03007KT M01/M07 A2996 RMK A01 T10071071  RH  062%=      5-min Rain = 0
KCH1 110425Z 03007KT M01/M07 A2996 RMK A01 T10071071  RH  062%=      5-min Rain = 0
KCH1 110426Z 04008KT M01/M07 A2996 RMK A01 T10071071  RH  062%=      5-min Rain = 0
KCH1 110427Z 03008KT M01/M07 A2996 RMK A01 T10071071  RH  062%=      5-min Rain = 0
KCH1 110428Z 03007KT M01/M07 A2996 RMK A01 T10071072  RH  062%=      5-min Rain = 0
KCH1 110429Z 03008KT M01/M07 A2996 RMK A01 T10071072  RH  062%=      5-min Rain = 0
KCH1 110430Z 02009KT M01/M07 A2996 RMK A01 T10081072  RH  062%=      5-min Rain = 0
KCH1 110431Z 03007KT M01/M07 A2996 RMK A01 T10071072  RH  062%=      5-min Rain = 0
KCH1 110432Z 03008KT M01/M07 A2996 RMK A01 T10071072  RH  062%=      5-min Rain = 0
KCH1 110433Z 02007KT M01/M07 A2996 RMK A01 T10071072  RH  062%=      5-min Rain = 0
KCH1 110434Z 03007KT M01/M07 A2996 RMK A01 T10071072  RH  062%=      5-min Rain = 0
KCH1 110435Z 03008KT M01/M07 A2996 RMK A01 T10071072  RH  061%=      5-min Rain = 0
KCH1 110436Z 04009KT M01/M07 A2996 RMK A01 T10071073  RH  061%=      5-min Rain = 0
KCH1 110437Z 04009KT M01/M07 A2997 RMK A01 T10071073  RH  061%=      5-min Rain = 0
KCH1 110438Z 03008KT M01/M07 A2997 RMK A01 T10071073  RH  061%=      5-min Rain = 0
KCH1 110439Z 03007KT M01/M07 A2997 RMK A01 T10071073  RH  061%=      5-min Rain = 0
KCH1 110440Z 03009KT M01/M07 A2996 RMK A01 T10071074  RH  061%=      5-min Rain = 0
KCH1 110441Z 03010KT M01/M07 A2996 RMK A01 T10071074  RH  060%=      5-min Rain = 0
KCH1 110442Z 04009KT M01/M07 A2996 RMK A01 T10071074  RH  060%=      5-min Rain = 0
KCH1 110443Z 04009KT M01/M07 A2996 RMK A01 T10061074  RH  060%=      5-min Rain = 0
KCH1 110444Z 03007KT M01/M07 A2996 RMK A01 T10071074  RH  060%=      5-min Rain = 0
KCH1 110445Z 04006KT M01/M08 A2996 RMK A01 T10071075  RH  060%=      5-min Rain = 0
KCH1 110446Z 03008KT M01/M08 A2996 RMK A01 T10071075  RH  060%=      5-min Rain = 0
KCH1 110447Z 03010KT M01/M08 A2996 RMK A01 T10081075  RH  060%=      5-min Rain = 0
KCH1 110448Z 03008KT M01/M08 A2996 RMK A01 T10081075  RH  060%=      5-min Rain = 0
KCH1 110449Z 04007KT M01/M08 A2997 RMK A01 T10071075  RH  060%=      5-min Rain = 0
KCH1 110450Z 03009KT M01/M08 A2997 RMK A01 T10071075  RH  060%=      5-min Rain = 0
KCH1 110451Z 02008KT M01/M08 A2997 RMK A01 T10071075  RH  060%=      5-min Rain = 0
KCH1 110452Z 03008KT M01/M08 A2997 RMK A01 T10071075  RH  060%=      5-min Rain = 0
KCH1 110453Z 03009KT M01/M08 A2997 RMK A01 T10081076  RH  060%=      5-min Rain = 0
KCH1 110454Z 04009KT M01/M08 A2997 RMK A01 T10081076  RH  060%=      5-min Rain = 0
KCH1 110455Z 04008KT M01/M08 A2997 RMK A01 T10081076  RH  060%=      5-min Rain = 0
KCH1 110456Z 03008KT M01/M08 A2997 RMK A01 T10081076  RH  060%=      5-min Rain = 0
KCH1 110457Z 04009KT M01/M08 A2997 RMK A01 T10081076  RH  060%=      5-min Rain = 0
KCH1 110458Z 04008KT M01/M08 A2997 RMK A01 T10091076  RH  060%=      5-min Rain = 0
KCH1 110459Z 03008KT M01/M08 A2997 RMK A01 T10091076  RH  060%=      5-min Rain = 0
KCH1 110500Z 03008KT M01/M08 A2997 RMK A01 T10091076  RH  061%=      5-min Rain = 0
KCH1 110501Z 03008KT M01/M08 A2997 RMK A01 T10091076  RH  061%=      5-min Rain = 0
KCH1 110502Z 02008KT M01/M08 A2997 RMK A01 T10101076  RH  061%=      5-min Rain = 0
KCH1 110503Z 03007KT M01/M08 A2997 RMK A01 T10101076  RH  061%=      5-min Rain = 0
KCH1 110504Z 03006KT M01/M08 A2997 RMK A01 T10101077  RH  061%=      5-min Rain = 0
KCH1 110505Z 03006KT M01/M08 A2997 RMK A01 T10111077  RH  061%=      5-min Rain = 0
KCH1 110506Z 04009KT M01/M08 A2997 RMK A01 T10111077  RH  061%=      5-min Rain = 0
KCH1 110507Z 02009KT M01/M08 A2997 RMK A01 T10121077  RH  061%=      5-min Rain = 0
KCH1 110508Z 02008KT M01/M08 A2997 RMK A01 T10111076  RH  061%=      5-min Rain = 0
KCH1 110509Z 04006KT M01/M08 A2997 RMK A01 T10111076  RH  061%=      5-min Rain = 0
KCH1 110510Z 04011KT M01/M08 A2997 RMK A01 T10121077  RH  061%=      5-min Rain = 0
KCH1 110511Z 04011KT M01/M08 A2997 RMK A01 T10111077  RH  061%=      5-min Rain = 0
KCH1 110512Z 03010KT M01/M08 A2997 RMK A01 T10111077  RH  061%=      5-min Rain = 0
KCH1 110513Z 03010G17KT M01/M08 A2997 RMK A01 T10121078  RH  061%=      5-min Rain = 0
KCH1 110514Z 04009KT M01/M08 A2997 RMK A01 T10121078  RH  061%=      5-min Rain = 0
KCH1 110515Z 04010KT M01/M08 A2997 RMK A01 T10121078  RH  061%=      5-min Rain = 0
KCH1 110516Z 04008KT M01/M08 A2997 RMK A01 T10131079  RH  061%=      5-min Rain = 0
KCH1 110517Z 03010KT M01/M08 A2997 RMK A01 T10131079  RH  061%=      5-min Rain = 0
KCH1 110518Z 04007KT M01/M08 A2997 RMK A01 T10131079  RH  061%=      5-min Rain = 0
KCH1 110519Z 05009KT M01/M08 A2997 RMK A01 T10131079  RH  061%=      5-min Rain = 0
KCH1 110520Z 04010KT M01/M08 A2997 RMK A01 T10141079  RH  061%=      5-min Rain = 0
KCH1 110521Z 05009KT M01/M08 A2997 RMK A01 T10141079  RH  061%=      5-min Rain = 0
KCH1 110522Z 03009KT M01/M08 A2997 RMK A01 T10141080  RH  061%=      5-min Rain = 0
KCH1 110523Z 03011KT M01/M08 A2997 RMK A01 T10141080  RH  061%=      5-min Rain = 0
KCH1 110524Z 04008G13KT M01/M08 A2997 RMK A01 T10141080  RH  061%=      5-min Rain = 0
KCH1 110525Z 04009KT M02/M08 A2997 RMK A01 T10151081  RH  061%=      5-min Rain = 0
KCH1 110526Z 03010KT M02/M08 A2997 RMK A01 T10151081  RH  061%=      5-min Rain = 0
KCH1 110527Z 04008KT M02/M08 A2997 RMK A01 T10151081  RH  061%=      5-min Rain = 0
KCH1 110528Z 04010KT M02/M08 A2997 RMK A01 T10151081  RH  061%=      5-min Rain = 0
KCH1 110529Z 03008KT M02/M08 A2997 RMK A01 T10151082  RH  061%=      5-min Rain = 0
KCH1 110530Z 04009KT M02/M08 A2998 RMK A01 T10161082  RH  061%=      5-min Rain = 0
KCH1 110531Z 03007G12KT M02/M08 A2998 RMK A01 T10161083  RH  061%=      5-min Rain = 0
KCH1 110532Z 03009KT M02/M08 A2998 RMK A01 T10171083  RH  061%=      5-min Rain = 0
KCH1 110533Z 03012KT M02/M08 A2998 RMK A01 T10161083  RH  060%=      5-min Rain = 0
KCH1 110534Z 04013KT M02/M08 A2998 RMK A01 T10171084  RH  060%=      5-min Rain = 0
KCH1 110535Z 04014KT M02/M08 A2998 RMK A01 T10171084  RH  060%=      5-min Rain = 0
KCH1 110536Z 04010KT M02/M08 A2999 RMK A01 T10171084  RH  060%=      5-min Rain = 0
KCH1 110537Z 04010KT M02/M08 A2999 RMK A01 T10171084  RH  060%=      5-min Rain = 0
KCH1 110538Z 05012KT M02/M09 A2999 RMK A01 T10181085  RH  060%=      5-min Rain = 0
KCH1 110539Z 04008KT M02/M09 A2999 RMK A01 T10181085  RH  060%=      5-min Rain = 0
KCH1 110540Z 03008KT M02/M09 A2998 RMK A01 T10191086  RH  060%=      5-min Rain = 0
KCH1 110541Z 04011KT M02/M09 A2998 RMK A01 T10191086  RH  060%=      5-min Rain = 0
KCH1 110542Z 03011KT M02/M09 A2998 RMK A01 T10191086  RH  060%=      5-min Rain = 0
KCH1 110543Z 04008G14KT M02/M09 A2999 RMK A01 T10191086  RH  060%=      5-min Rain = 0
KCH1 110544Z 04010KT M02/M09 A2999 RMK A01 T10201087  RH  060%=      5-min Rain = 0
KCH1 110545Z 04013KT M02/M09 A2999 RMK A01 T10201087  RH  060%=      5-min Rain = 0
KCH1 110546Z 04014KT M02/M09 A2999 RMK A01 T10201088  RH  060%=      5-min Rain = 0
KCH1 110547Z 04013KT M02/M09 A2999 RMK A01 T10201089  RH  059%=      5-min Rain = 0
KCH1 110548Z 04011KT M02/M09 A2999 RMK A01 T10201089  RH  059%=      5-min Rain = 0
KCH1 110549Z 04013KT M02/M09 A2999 RMK A01 T10201089  RH  059%=      5-min Rain = 0
KCH1 110550Z 04009KT M02/M09 A2999 RMK A01 T10201089  RH  059%=      5-min Rain = 0
KCH1 110551Z 04011KT M02/M09 A2999 RMK A01 T10211089  RH  060%=      5-min Rain = 0
KCH1 110552Z 03010KT M02/M09 A2999 RMK A01 T10211089  RH  060%=      5-min Rain = 0
KCH1 110553Z 03009KT M02/M09 A2999 RMK A01 T10221090  RH  060%=      5-min Rain = 0
KCH1 110554Z 03008KT M02/M09 A2999 RMK A01 T10221090  RH  060%=      5-min Rain = 0
KCH1 110555Z 04008KT M02/M09 A30 RMK A01 T10211090  RH  060%=      5-min Rain = 0
KCH1 110556Z 04007KT M02/M09 A30 RMK A01 T10221090  RH  060%=      5-min Rain = 0
KCH1 110557Z 04010KT M02/M09 A30 RMK A01 T10221090  RH  060%=      5-min Rain = 0
KCH1 110558Z 05009KT M02/M09 A30 RMK A01 T10231090  RH  060%=      5-min Rain = 0
KCH1 110559Z 05008KT M02/M09 A2999 RMK A01 T10231090  RH  060%=      5-min Rain = 0

Page generated in 0.0713 seconds.